<?xml version='1.0' encoding='UTF-8'?><gpx version="1.1" creator="JPX - https://github.com/jenetics/jpx" xmlns="http://www.topografix.com/GPX/1/1"><trk><trkseg><trkpt lat="9.899307" lon="-84.0919333"><ele>1111.0</ele><time>2026-04-05T02:53:22.557Z</time></trkpt><trkpt lat="9.8993001" lon="-84.0920172"><ele>1111.0</ele><time>2026-04-05T02:53:25.536Z</time></trkpt><trkpt lat="9.8992992" lon="-84.0920815"><ele>1111.0</ele><time>2026-04-05T02:53:27.555Z</time></trkpt><trkpt lat="9.8991554" lon="-84.0921497"><ele>1111.0</ele><time>2026-04-05T02:53:28.557Z</time></trkpt><trkpt lat="9.8991141" lon="-84.0921981"><ele>1111.0</ele><time>2026-04-05T02:53:32.557Z</time></trkpt><trkpt lat="9.8991168" lon="-84.0921129"><ele>1111.0</ele><time>2026-04-05T02:53:34.557Z</time></trkpt><trkpt lat="9.8991266" lon="-84.0920139"><ele>1111.0</ele><time>2026-04-05T02:53:36.557Z</time></trkpt><trkpt lat="9.899167" lon="-84.091934"><ele>1111.0</ele><time>2026-04-05T02:53:38.557Z</time></trkpt><trkpt lat="9.899234" lon="-84.0918919"><ele>1111.0</ele><time>2026-04-05T02:53:40.557Z</time></trkpt><trkpt lat="9.8993046" lon="-84.0918733"><ele>1111.0</ele><time>2026-04-05T02:53:42.557Z</time></trkpt><trkpt lat="9.8993682" lon="-84.0918647"><ele>1111.0</ele><time>2026-04-05T02:53:45.557Z</time></trkpt><trkpt lat="9.8993021" lon="-84.0919038"><ele>1111.6</ele><time>2026-04-05T02:54:06.557Z</time></trkpt><trkpt lat="9.8992154" lon="-84.091955"><ele>1112.1999999999998</ele><time>2026-04-05T02:54:08.557Z</time></trkpt><trkpt lat="9.8991729" lon="-84.09203"><ele>1112.8000000000002</ele><time>2026-04-05T02:54:10.557Z</time></trkpt><trkpt lat="9.899154" lon="-84.0921317"><ele>1113.4</ele><time>2026-04-05T02:54:12.557Z</time></trkpt><trkpt lat="9.8991184" lon="-84.0922053"><ele>1114.0</ele><time>2026-04-05T02:54:14.556Z</time></trkpt><trkpt lat="9.8990174" lon="-84.0922236"><ele>1114.0</ele><time>2026-04-05T02:54:16.557Z</time></trkpt><trkpt lat="9.8989117" lon="-84.0922304"><ele>1114.0</ele><time>2026-04-05T02:54:18.557Z</time></trkpt><trkpt lat="9.8987774" lon="-84.0922142"><ele>1114.0</ele><time>2026-04-05T02:54:20.557Z</time></trkpt><trkpt lat="9.8987122" lon="-84.0922033"><ele>1114.0</ele><time>2026-04-05T02:54:21.557Z</time></trkpt><trkpt lat="9.8986359" lon="-84.0921956"><ele>1114.0</ele><time>2026-04-05T02:54:22.556Z</time></trkpt><trkpt lat="9.8985638" lon="-84.0921871"><ele>1114.0</ele><time>2026-04-05T02:54:23.557Z</time></trkpt><trkpt lat="9.8984977" lon="-84.0921863"><ele>1114.0</ele><time>2026-04-05T02:54:24.556Z</time></trkpt><trkpt lat="9.8983799" lon="-84.0921895"><ele>1114.0</ele><time>2026-04-05T02:54:26.557Z</time></trkpt><trkpt lat="9.8982609" lon="-84.0922011"><ele>1114.0</ele><time>2026-04-05T02:54:28.556Z</time></trkpt><trkpt lat="9.8981763" lon="-84.0922187"><ele>1114.0</ele><time>2026-04-05T02:54:30.557Z</time></trkpt><trkpt lat="9.8981043" lon="-84.0922252"><ele>1114.1666666666665</ele><time>2026-04-05T02:54:32.556Z</time></trkpt><trkpt lat="9.8979862" lon="-84.0922329"><ele>1114.3333333333333</ele><time>2026-04-05T02:54:34.556Z</time></trkpt><trkpt lat="9.8978857" lon="-84.0922449"><ele>1114.5</ele><time>2026-04-05T02:54:36.557Z</time></trkpt><trkpt lat="9.8978338" lon="-84.0922875"><ele>1114.6666666666667</ele><time>2026-04-05T02:54:38.556Z</time></trkpt><trkpt lat="9.8978312" lon="-84.0923763"><ele>1114.8333333333335</ele><time>2026-04-05T02:54:42.556Z</time></trkpt><trkpt lat="9.8978634" lon="-84.0924322"><ele>1115.0</ele><time>2026-04-05T02:54:43.557Z</time></trkpt><trkpt lat="9.8979012" lon="-84.0924996"><ele>1115.0</ele><time>2026-04-05T02:54:44.556Z</time></trkpt><trkpt lat="9.8979655" lon="-84.0925748"><ele>1115.0</ele><time>2026-04-05T02:54:45.557Z</time></trkpt><trkpt lat="9.8980314" lon="-84.0926549"><ele>1115.0</ele><time>2026-04-05T02:54:46.557Z</time></trkpt><trkpt lat="9.8981052" lon="-84.0927274"><ele>1115.0</ele><time>2026-04-05T02:54:47.557Z</time></trkpt><trkpt lat="9.8981802" lon="-84.0927968"><ele>1115.0</ele><time>2026-04-05T02:54:48.557Z</time></trkpt><trkpt lat="9.8982492" lon="-84.0928624"><ele>1115.0</ele><time>2026-04-05T02:54:49.556Z</time></trkpt><trkpt lat="9.8983056" lon="-84.0929157"><ele>1115.0</ele><time>2026-04-05T02:54:50.556Z</time></trkpt><trkpt lat="9.8983571" lon="-84.0929681"><ele>1115.0</ele><time>2026-04-05T02:54:51.556Z</time></trkpt><trkpt lat="9.8984203" lon="-84.0930299"><ele>1115.0</ele><time>2026-04-05T02:54:53.556Z</time></trkpt><trkpt lat="9.8984807" lon="-84.0930985"><ele>1115.0</ele><time>2026-04-05T02:54:55.557Z</time></trkpt><trkpt lat="9.898531" lon="-84.0931505"><ele>1115.0</ele><time>2026-04-05T02:54:56.556Z</time></trkpt><trkpt lat="9.8985952" lon="-84.0932156"><ele>1115.2</ele><time>2026-04-05T02:54:57.556Z</time></trkpt><trkpt lat="9.8986739" lon="-84.0932919"><ele>1115.4</ele><time>2026-04-05T02:54:58.557Z</time></trkpt><trkpt lat="9.8987472" lon="-84.0933611"><ele>1115.6</ele><time>2026-04-05T02:54:59.556Z</time></trkpt><trkpt lat="9.8988179" lon="-84.0934236"><ele>1115.8</ele><time>2026-04-05T02:55:00.557Z</time></trkpt><trkpt lat="9.8988868" lon="-84.0934756"><ele>1116.0</ele><time>2026-04-05T02:55:01.557Z</time></trkpt><trkpt lat="9.8989431" lon="-84.0935167"><ele>1116.0</ele><time>2026-04-05T02:55:02.557Z</time></trkpt><trkpt lat="9.8990229" lon="-84.0935848"><ele>1116.0</ele><time>2026-04-05T02:55:04.557Z</time></trkpt><trkpt lat="9.8991186" lon="-84.0936529"><ele>1116.0</ele><time>2026-04-05T02:55:06.557Z</time></trkpt><trkpt lat="9.8991889" lon="-84.0936992"><ele>1116.0</ele><time>2026-04-05T02:55:07.557Z</time></trkpt><trkpt lat="9.8992675" lon="-84.0937438"><ele>1116.0</ele><time>2026-04-05T02:55:08.558Z</time></trkpt><trkpt lat="9.899347" lon="-84.093776"><ele>1115.3999999999999</ele><time>2026-04-05T02:55:09.555Z</time></trkpt><trkpt lat="9.8994366" lon="-84.0938151"><ele>1114.8</ele><time>2026-04-05T02:55:10.557Z</time></trkpt><trkpt lat="9.8995395" lon="-84.0938551"><ele>1114.1999999999998</ele><time>2026-04-05T02:55:11.557Z</time></trkpt><trkpt lat="9.8996505" lon="-84.0938922"><ele>1113.6</ele><time>2026-04-05T02:55:12.558Z</time></trkpt><trkpt lat="9.8997562" lon="-84.0939266"><ele>1113.0</ele><time>2026-04-05T02:55:13.556Z</time></trkpt><trkpt lat="9.899848" lon="-84.0939594"><ele>1113.0</ele><time>2026-04-05T02:55:14.557Z</time></trkpt><trkpt lat="9.8999372" lon="-84.0939987"><ele>1113.0</ele><time>2026-04-05T02:55:15.556Z</time></trkpt><trkpt lat="9.9000121" lon="-84.0940468"><ele>1113.0</ele><time>2026-04-05T02:55:16.557Z</time></trkpt><trkpt lat="9.9000749" lon="-84.0941213"><ele>1113.0</ele><time>2026-04-05T02:55:17.556Z</time></trkpt><trkpt lat="9.9001299" lon="-84.0942046"><ele>1113.0</ele><time>2026-04-05T02:55:18.557Z</time></trkpt><trkpt lat="9.9001857" lon="-84.0942994"><ele>1113.0</ele><time>2026-04-05T02:55:19.556Z</time></trkpt><trkpt lat="9.9002319" lon="-84.0943909"><ele>1113.0</ele><time>2026-04-05T02:55:20.555Z</time></trkpt><trkpt lat="9.9002759" lon="-84.0944782"><ele>1113.0</ele><time>2026-04-05T02:55:21.557Z</time></trkpt><trkpt lat="9.9003174" lon="-84.0945552"><ele>1113.0</ele><time>2026-04-05T02:55:22.556Z</time></trkpt><trkpt lat="9.9003509" lon="-84.0946306"><ele>1113.0</ele><time>2026-04-05T02:55:23.556Z</time></trkpt><trkpt lat="9.9003842" lon="-84.0947015"><ele>1113.0</ele><time>2026-04-05T02:55:24.557Z</time></trkpt><trkpt lat="9.900413" lon="-84.0947657"><ele>1113.0</ele><time>2026-04-05T02:55:25.557Z</time></trkpt><trkpt lat="9.900444" lon="-84.0948368"><ele>1113.0</ele><time>2026-04-05T02:55:26.557Z</time></trkpt><trkpt lat="9.9004819" lon="-84.0948952"><ele>1113.0</ele><time>2026-04-05T02:55:27.556Z</time></trkpt><trkpt lat="9.9005806" lon="-84.0949522"><ele>1113.0</ele><time>2026-04-05T02:55:29.556Z</time></trkpt><trkpt lat="9.9007153" lon="-84.094956"><ele>1113.0</ele><time>2026-04-05T02:55:31.556Z</time></trkpt><trkpt lat="9.9008001" lon="-84.0949534"><ele>1113.0</ele><time>2026-04-05T02:55:32.557Z</time></trkpt><trkpt lat="9.9008935" lon="-84.0949538"><ele>1113.0</ele><time>2026-04-05T02:55:33.556Z</time></trkpt><trkpt lat="9.9009911" lon="-84.0949559"><ele>1113.0</ele><time>2026-04-05T02:55:34.556Z</time></trkpt><trkpt lat="9.9011095" lon="-84.0949653"><ele>1113.0</ele><time>2026-04-05T02:55:35.557Z</time></trkpt><trkpt lat="9.9012273" lon="-84.0949934"><ele>1113.0</ele><time>2026-04-05T02:55:36.557Z</time></trkpt><trkpt lat="9.9013503" lon="-84.0950322"><ele>1113.0</ele><time>2026-04-05T02:55:37.555Z</time></trkpt><trkpt lat="9.9014583" lon="-84.0950706"><ele>1113.0</ele><time>2026-04-05T02:55:38.556Z</time></trkpt><trkpt lat="9.9015657" lon="-84.0951097"><ele>1113.0</ele><time>2026-04-05T02:55:39.556Z</time></trkpt><trkpt lat="9.9016775" lon="-84.0951425"><ele>1113.0</ele><time>2026-04-05T02:55:40.555Z</time></trkpt><trkpt lat="9.9017872" lon="-84.0951727"><ele>1111.6</ele><time>2026-04-05T02:55:41.556Z</time></trkpt><trkpt lat="9.9018928" lon="-84.0951979"><ele>1110.1999999999998</ele><time>2026-04-05T02:55:42.557Z</time></trkpt><trkpt lat="9.9019937" lon="-84.0952269"><ele>1108.8</ele><time>2026-04-05T02:55:43.555Z</time></trkpt><trkpt lat="9.9020905" lon="-84.0952669"><ele>1107.3999999999999</ele><time>2026-04-05T02:55:44.557Z</time></trkpt><trkpt lat="9.9021814" lon="-84.0953158"><ele>1106.0</ele><time>2026-04-05T02:55:45.556Z</time></trkpt><trkpt lat="9.9022633" lon="-84.0953681"><ele>1106.0</ele><time>2026-04-05T02:55:46.556Z</time></trkpt><trkpt lat="9.9023362" lon="-84.0954169"><ele>1106.0</ele><time>2026-04-05T02:55:47.556Z</time></trkpt><trkpt lat="9.902404" lon="-84.0954748"><ele>1106.0</ele><time>2026-04-05T02:55:48.555Z</time></trkpt><trkpt lat="9.9024736" lon="-84.0955346"><ele>1106.0</ele><time>2026-04-05T02:55:49.557Z</time></trkpt><trkpt lat="9.9025376" lon="-84.0956038"><ele>1106.0</ele><time>2026-04-05T02:55:50.556Z</time></trkpt><trkpt lat="9.9026005" lon="-84.0956689"><ele>1105.6666666666667</ele><time>2026-04-05T02:55:51.557Z</time></trkpt><trkpt lat="9.9026539" lon="-84.0957356"><ele>1105.3333333333335</ele><time>2026-04-05T02:55:52.556Z</time></trkpt><trkpt lat="9.9027093" lon="-84.0958104"><ele>1105.0</ele><time>2026-04-05T02:55:53.556Z</time></trkpt><trkpt lat="9.9027678" lon="-84.0958833"><ele>1104.6666666666667</ele><time>2026-04-05T02:55:54.557Z</time></trkpt><trkpt lat="9.9028253" lon="-84.0959603"><ele>1104.3333333333333</ele><time>2026-04-05T02:55:55.557Z</time></trkpt><trkpt lat="9.9028721" lon="-84.096026"><ele>1104.0</ele><time>2026-04-05T02:55:56.556Z</time></trkpt><trkpt lat="9.9029182" lon="-84.0960992"><ele>1104.0</ele><time>2026-04-05T02:55:57.557Z</time></trkpt><trkpt lat="9.9029594" lon="-84.0961603"><ele>1104.0</ele><time>2026-04-05T02:55:58.556Z</time></trkpt><trkpt lat="9.9029944" lon="-84.0962145"><ele>1104.0</ele><time>2026-04-05T02:55:59.556Z</time></trkpt><trkpt lat="9.9030613" lon="-84.0962913"><ele>1104.0</ele><time>2026-04-05T02:56:01.557Z</time></trkpt><trkpt lat="9.9031048" lon="-84.0963448"><ele>1104.0</ele><time>2026-04-05T02:56:03.556Z</time></trkpt><trkpt lat="9.9031567" lon="-84.0964273"><ele>1104.0</ele><time>2026-04-05T02:56:06.556Z</time></trkpt><trkpt lat="9.9031961" lon="-84.0964797"><ele>1104.0</ele><time>2026-04-05T02:56:07.556Z</time></trkpt><trkpt lat="9.9032395" lon="-84.0965373"><ele>1104.0</ele><time>2026-04-05T02:56:08.555Z</time></trkpt><trkpt lat="9.9032717" lon="-84.0965948"><ele>1104.0</ele><time>2026-04-05T02:56:09.557Z</time></trkpt><trkpt lat="9.9033072" lon="-84.0966523"><ele>1104.0</ele><time>2026-04-05T02:56:10.556Z</time></trkpt><trkpt lat="9.9033389" lon="-84.0967194"><ele>1104.0</ele><time>2026-04-05T02:56:11.557Z</time></trkpt><trkpt lat="9.903376" lon="-84.0967939"><ele>1104.0</ele><time>2026-04-05T02:56:12.556Z</time></trkpt><trkpt lat="9.9034194" lon="-84.0968758"><ele>1104.0</ele><time>2026-04-05T02:56:13.557Z</time></trkpt><trkpt lat="9.9034633" lon="-84.0969666"><ele>1104.0</ele><time>2026-04-05T02:56:14.556Z</time></trkpt><trkpt lat="9.903504" lon="-84.0970645"><ele>1104.0</ele><time>2026-04-05T02:56:15.557Z</time></trkpt><trkpt lat="9.9035545" lon="-84.0971607"><ele>1104.0</ele><time>2026-04-05T02:56:16.556Z</time></trkpt><trkpt lat="9.9035978" lon="-84.0972513"><ele>1104.0</ele><time>2026-04-05T02:56:17.556Z</time></trkpt><trkpt lat="9.9036286" lon="-84.0973381"><ele>1106.5</ele><time>2026-04-05T02:56:18.557Z</time></trkpt><trkpt lat="9.9036643" lon="-84.0974222"><ele>1109.0</ele><time>2026-04-05T02:56:19.555Z</time></trkpt><trkpt lat="9.9037025" lon="-84.0975055"><ele>1111.5</ele><time>2026-04-05T02:56:20.556Z</time></trkpt><trkpt lat="9.9037321" lon="-84.0975705"><ele>1114.0</ele><time>2026-04-05T02:56:21.557Z</time></trkpt><trkpt lat="9.9038108" lon="-84.0976662"><ele>1116.5</ele><time>2026-04-05T02:56:23.557Z</time></trkpt><trkpt lat="9.9038646" lon="-84.0977126"><ele>1119.0</ele><time>2026-04-05T02:56:24.557Z</time></trkpt><trkpt lat="9.9039234" lon="-84.0977664"><ele>1119.0</ele><time>2026-04-05T02:56:25.557Z</time></trkpt><trkpt lat="9.9039856" lon="-84.0978255"><ele>1119.0</ele><time>2026-04-05T02:56:26.555Z</time></trkpt><trkpt lat="9.9040506" lon="-84.0978947"><ele>1119.0</ele><time>2026-04-05T02:56:27.556Z</time></trkpt><trkpt lat="9.9041092" lon="-84.0979566"><ele>1119.0</ele><time>2026-04-05T02:56:28.555Z</time></trkpt><trkpt lat="9.9041625" lon="-84.0980136"><ele>1119.0</ele><time>2026-04-05T02:56:29.557Z</time></trkpt><trkpt lat="9.9042072" lon="-84.098071"><ele>1119.0</ele><time>2026-04-05T02:56:30.556Z</time></trkpt><trkpt lat="9.9042452" lon="-84.0981658"><ele>1118.2</ele><time>2026-04-05T02:56:32.557Z</time></trkpt><trkpt lat="9.9042936" lon="-84.098256"><ele>1117.4</ele><time>2026-04-05T02:56:35.557Z</time></trkpt><trkpt lat="9.9043075" lon="-84.0983504"><ele>1116.6</ele><time>2026-04-05T02:56:37.555Z</time></trkpt><trkpt lat="9.904347" lon="-84.0984645"><ele>1115.8</ele><time>2026-04-05T02:56:39.555Z</time></trkpt><trkpt lat="9.9043793" lon="-84.0985515"><ele>1115.0</ele><time>2026-04-05T02:56:41.556Z</time></trkpt><trkpt lat="9.9044108" lon="-84.0986313"><ele>1115.0</ele><time>2026-04-05T02:56:43.557Z</time></trkpt><trkpt lat="9.9044493" lon="-84.0987397"><ele>1115.0</ele><time>2026-04-05T02:56:45.556Z</time></trkpt><trkpt lat="9.9044807" lon="-84.0988029"><ele>1115.0</ele><time>2026-04-05T02:56:46.556Z</time></trkpt><trkpt lat="9.9045196" lon="-84.098874"><ele>1115.0</ele><time>2026-04-05T02:56:47.556Z</time></trkpt><trkpt lat="9.9045663" lon="-84.0989795"><ele>1115.0</ele><time>2026-04-05T02:56:49.557Z</time></trkpt><trkpt lat="9.9046078" lon="-84.0990648"><ele>1117.0</ele><time>2026-04-05T02:56:51.556Z</time></trkpt><trkpt lat="9.9046536" lon="-84.0991417"><ele>1119.0</ele><time>2026-04-05T02:56:54.555Z</time></trkpt><trkpt lat="9.9047245" lon="-84.0991985"><ele>1121.0</ele><time>2026-04-05T02:56:56.556Z</time></trkpt><trkpt lat="9.9047885" lon="-84.0992172"><ele>1123.0</ele><time>2026-04-05T02:56:57.556Z</time></trkpt><trkpt lat="9.90485" lon="-84.0992338"><ele>1125.0</ele><time>2026-04-05T02:56:58.556Z</time></trkpt><trkpt lat="9.9049157" lon="-84.0992471"><ele>1127.0</ele><time>2026-04-05T02:56:59.557Z</time></trkpt><trkpt lat="9.9050254" lon="-84.099269"><ele>1125.6</ele><time>2026-04-05T02:57:01.557Z</time></trkpt><trkpt lat="9.905119" lon="-84.0992971"><ele>1124.2</ele><time>2026-04-05T02:57:03.556Z</time></trkpt><trkpt lat="9.9051467" lon="-84.099404"><ele>1122.8</ele><time>2026-04-05T02:57:05.556Z</time></trkpt><trkpt lat="9.9051316" lon="-84.0995257"><ele>1121.4</ele><time>2026-04-05T02:57:07.557Z</time></trkpt><trkpt lat="9.905115" lon="-84.0996335"><ele>1120.0</ele><time>2026-04-05T02:57:09.556Z</time></trkpt><trkpt lat="9.9051056" lon="-84.0997081"><ele>1120.0</ele><time>2026-04-05T02:57:11.557Z</time></trkpt><trkpt lat="9.9050926" lon="-84.0998043"><ele>1120.0</ele><time>2026-04-05T02:57:14.557Z</time></trkpt><trkpt lat="9.9050753" lon="-84.0998791"><ele>1120.0</ele><time>2026-04-05T02:57:16.556Z</time></trkpt><trkpt lat="9.9050634" lon="-84.0999472"><ele>1120.0</ele><time>2026-04-05T02:57:21.555Z</time></trkpt><trkpt lat="9.9050483" lon="-84.1000205"><ele>1120.0</ele><time>2026-04-05T02:57:25.556Z</time></trkpt><trkpt lat="9.905056" lon="-84.1000955"><ele>1120.0</ele><time>2026-04-05T02:57:29.556Z</time></trkpt><trkpt lat="9.9051336" lon="-84.1001505"><ele>1121.5</ele><time>2026-04-05T02:57:31.556Z</time></trkpt><trkpt lat="9.9051979" lon="-84.1001661"><ele>1123.0</ele><time>2026-04-05T02:57:32.556Z</time></trkpt><trkpt lat="9.9052684" lon="-84.100183"><ele>1124.5</ele><time>2026-04-05T02:57:33.556Z</time></trkpt><trkpt lat="9.9053492" lon="-84.1002008"><ele>1126.0</ele><time>2026-04-05T02:57:34.556Z</time></trkpt><trkpt lat="9.9054359" lon="-84.1002189"><ele>1127.5</ele><time>2026-04-05T02:57:35.556Z</time></trkpt><trkpt lat="9.9055201" lon="-84.1002336"><ele>1129.0</ele><time>2026-04-05T02:57:36.556Z</time></trkpt><trkpt lat="9.9055935" lon="-84.1002459"><ele>1129.0</ele><time>2026-04-05T02:57:37.556Z</time></trkpt><trkpt lat="9.9056796" lon="-84.1002534"><ele>1129.0</ele><time>2026-04-05T02:57:38.556Z</time></trkpt><trkpt lat="9.9057624" lon="-84.1002487"><ele>1129.0</ele><time>2026-04-05T02:57:39.557Z</time></trkpt><trkpt lat="9.9058505" lon="-84.1002344"><ele>1129.0</ele><time>2026-04-05T02:57:40.557Z</time></trkpt><trkpt lat="9.9059461" lon="-84.100208"><ele>1129.0</ele><time>2026-04-05T02:57:41.556Z</time></trkpt><trkpt lat="9.9060452" lon="-84.1001713"><ele>1128.6000000000001</ele><time>2026-04-05T02:57:42.557Z</time></trkpt><trkpt lat="9.9061248" lon="-84.100122"><ele>1128.2</ele><time>2026-04-05T02:57:43.555Z</time></trkpt><trkpt lat="9.9061969" lon="-84.1000634"><ele>1127.8000000000002</ele><time>2026-04-05T02:57:44.556Z</time></trkpt><trkpt lat="9.9062637" lon="-84.0999919"><ele>1127.4</ele><time>2026-04-05T02:57:45.556Z</time></trkpt><trkpt lat="9.9063292" lon="-84.099917"><ele>1127.0</ele><time>2026-04-05T02:57:46.555Z</time></trkpt><trkpt lat="9.906392" lon="-84.099844"><ele>1125.3333333333335</ele><time>2026-04-05T02:57:47.555Z</time></trkpt><trkpt lat="9.9064456" lon="-84.0997786"><ele>1123.6666666666667</ele><time>2026-04-05T02:57:48.555Z</time></trkpt><trkpt lat="9.9065006" lon="-84.0997182"><ele>1122.0</ele><time>2026-04-05T02:57:49.556Z</time></trkpt><trkpt lat="9.9065598" lon="-84.0996657"><ele>1120.3333333333333</ele><time>2026-04-05T02:57:50.555Z</time></trkpt><trkpt lat="9.9066298" lon="-84.0996181"><ele>1118.6666666666665</ele><time>2026-04-05T02:57:51.556Z</time></trkpt><trkpt lat="9.906719" lon="-84.0995978"><ele>1117.0</ele><time>2026-04-05T02:57:52.556Z</time></trkpt><trkpt lat="9.9068096" lon="-84.0995934"><ele>1114.8</ele><time>2026-04-05T02:57:53.557Z</time></trkpt><trkpt lat="9.9068963" lon="-84.0996089"><ele>1112.6</ele><time>2026-04-05T02:57:54.556Z</time></trkpt><trkpt lat="9.906983" lon="-84.0996364"><ele>1110.3999999999999</ele><time>2026-04-05T02:57:55.557Z</time></trkpt><trkpt lat="9.9070683" lon="-84.0996728"><ele>1108.2</ele><time>2026-04-05T02:57:56.556Z</time></trkpt><trkpt lat="9.9071531" lon="-84.0997222"><ele>1106.0</ele><time>2026-04-05T02:57:57.556Z</time></trkpt><trkpt lat="9.9072458" lon="-84.0997857"><ele>1106.0</ele><time>2026-04-05T02:57:58.555Z</time></trkpt><trkpt lat="9.9073443" lon="-84.0998541"><ele>1106.0</ele><time>2026-04-05T02:57:59.557Z</time></trkpt><trkpt lat="9.9074446" lon="-84.0999214"><ele>1106.0</ele><time>2026-04-05T02:58:00.556Z</time></trkpt><trkpt lat="9.9075407" lon="-84.0999832"><ele>1106.0</ele><time>2026-04-05T02:58:01.556Z</time></trkpt><trkpt lat="9.9076369" lon="-84.100048"><ele>1104.8</ele><time>2026-04-05T02:58:02.556Z</time></trkpt><trkpt lat="9.9077328" lon="-84.1001136"><ele>1103.6</ele><time>2026-04-05T02:58:03.556Z</time></trkpt><trkpt lat="9.907823" lon="-84.1001805"><ele>1102.4</ele><time>2026-04-05T02:58:04.556Z</time></trkpt><trkpt lat="9.9079174" lon="-84.1002432"><ele>1101.2</ele><time>2026-04-05T02:58:05.557Z</time></trkpt><trkpt lat="9.908005" lon="-84.100302"><ele>1100.0</ele><time>2026-04-05T02:58:06.555Z</time></trkpt><trkpt lat="9.9080889" lon="-84.1003557"><ele>1100.0</ele><time>2026-04-05T02:58:07.556Z</time></trkpt><trkpt lat="9.9081753" lon="-84.1004098"><ele>1100.0</ele><time>2026-04-05T02:58:08.555Z</time></trkpt><trkpt lat="9.9082577" lon="-84.100458"><ele>1100.0</ele><time>2026-04-05T02:58:09.556Z</time></trkpt><trkpt lat="9.9083445" lon="-84.1004995"><ele>1100.0</ele><time>2026-04-05T02:58:10.556Z</time></trkpt><trkpt lat="9.9084464" lon="-84.100505"><ele>1100.0</ele><time>2026-04-05T02:58:11.556Z</time></trkpt><trkpt lat="9.908537" lon="-84.1004888"><ele>1099.8</ele><time>2026-04-05T02:58:12.557Z</time></trkpt><trkpt lat="9.9086207" lon="-84.1004524"><ele>1099.6</ele><time>2026-04-05T02:58:13.556Z</time></trkpt><trkpt lat="9.908688" lon="-84.1003815"><ele>1099.4</ele><time>2026-04-05T02:58:14.556Z</time></trkpt><trkpt lat="9.9087384" lon="-84.1003037"><ele>1099.2</ele><time>2026-04-05T02:58:15.556Z</time></trkpt><trkpt lat="9.9087745" lon="-84.1002123"><ele>1099.0</ele><time>2026-04-05T02:58:16.556Z</time></trkpt><trkpt lat="9.9088125" lon="-84.1001154"><ele>1099.0</ele><time>2026-04-05T02:58:17.556Z</time></trkpt><trkpt lat="9.908851" lon="-84.1000049"><ele>1099.0</ele><time>2026-04-05T02:58:18.556Z</time></trkpt><trkpt lat="9.9088844" lon="-84.0998855"><ele>1099.0</ele><time>2026-04-05T02:58:19.557Z</time></trkpt><trkpt lat="9.9088988" lon="-84.0997628"><ele>1099.0</ele><time>2026-04-05T02:58:20.556Z</time></trkpt><trkpt lat="9.9089051" lon="-84.0996492"><ele>1102.0</ele><time>2026-04-05T02:58:21.557Z</time></trkpt><trkpt lat="9.908873" lon="-84.0995403"><ele>1105.0</ele><time>2026-04-05T02:58:22.556Z</time></trkpt><trkpt lat="9.9088132" lon="-84.0994382"><ele>1108.0</ele><time>2026-04-05T02:58:23.556Z</time></trkpt><trkpt lat="9.9087435" lon="-84.0993494"><ele>1111.0</ele><time>2026-04-05T02:58:24.556Z</time></trkpt><trkpt lat="9.9086833" lon="-84.0992675"><ele>1114.0</ele><time>2026-04-05T02:58:25.557Z</time></trkpt><trkpt lat="9.9086201" lon="-84.0991939"><ele>1114.0</ele><time>2026-04-05T02:58:26.557Z</time></trkpt><trkpt lat="9.9085649" lon="-84.0991194"><ele>1114.0</ele><time>2026-04-05T02:58:27.556Z</time></trkpt><trkpt lat="9.9085218" lon="-84.0990389"><ele>1114.0</ele><time>2026-04-05T02:58:28.556Z</time></trkpt><trkpt lat="9.9085076" lon="-84.0989492"><ele>1114.0</ele><time>2026-04-05T02:58:29.556Z</time></trkpt><trkpt lat="9.9085184" lon="-84.0988532"><ele>1114.0</ele><time>2026-04-05T02:58:30.556Z</time></trkpt><trkpt lat="9.9085515" lon="-84.0987633"><ele>1114.3333333333333</ele><time>2026-04-05T02:58:31.557Z</time></trkpt><trkpt lat="9.9086052" lon="-84.098689"><ele>1114.6666666666665</ele><time>2026-04-05T02:58:32.556Z</time></trkpt><trkpt lat="9.9086674" lon="-84.0986373"><ele>1115.0</ele><time>2026-04-05T02:58:33.556Z</time></trkpt><trkpt lat="9.908741" lon="-84.0985982"><ele>1115.3333333333333</ele><time>2026-04-05T02:58:34.556Z</time></trkpt><trkpt lat="9.9088277" lon="-84.098574"><ele>1115.6666666666667</ele><time>2026-04-05T02:58:35.555Z</time></trkpt><trkpt lat="9.9089283" lon="-84.0985688"><ele>1116.0</ele><time>2026-04-05T02:58:36.556Z</time></trkpt><trkpt lat="9.909023" lon="-84.0985833"><ele>1116.0</ele><time>2026-04-05T02:58:37.556Z</time></trkpt><trkpt lat="9.9091163" lon="-84.0986146"><ele>1116.0</ele><time>2026-04-05T02:58:38.556Z</time></trkpt><trkpt lat="9.9092129" lon="-84.0986828"><ele>1116.0</ele><time>2026-04-05T02:58:39.556Z</time></trkpt><trkpt lat="9.9093014" lon="-84.0987477"><ele>1116.0</ele><time>2026-04-05T02:58:40.555Z</time></trkpt><trkpt lat="9.9093911" lon="-84.0988162"><ele>1116.0</ele><time>2026-04-05T02:58:41.556Z</time></trkpt><trkpt lat="9.9094816" lon="-84.0988827"><ele>1117.0</ele><time>2026-04-05T02:58:42.556Z</time></trkpt><trkpt lat="9.9095776" lon="-84.0989488"><ele>1118.0</ele><time>2026-04-05T02:58:43.556Z</time></trkpt><trkpt lat="9.9096804" lon="-84.0990138"><ele>1119.0</ele><time>2026-04-05T02:58:44.556Z</time></trkpt><trkpt lat="9.9097829" lon="-84.0990658"><ele>1120.0</ele><time>2026-04-05T02:58:45.556Z</time></trkpt><trkpt lat="9.9098816" lon="-84.0991173"><ele>1119.6</ele><time>2026-04-05T02:58:46.556Z</time></trkpt><trkpt lat="9.909986" lon="-84.0991481"><ele>1119.2</ele><time>2026-04-05T02:58:47.557Z</time></trkpt><trkpt lat="9.9100855" lon="-84.0991749"><ele>1118.8</ele><time>2026-04-05T02:58:48.556Z</time></trkpt><trkpt lat="9.9101832" lon="-84.099199"><ele>1118.4</ele><time>2026-04-05T02:58:49.556Z</time></trkpt><trkpt lat="9.9102745" lon="-84.0992222"><ele>1118.0</ele><time>2026-04-05T02:58:50.556Z</time></trkpt><trkpt lat="9.9103622" lon="-84.0992405"><ele>1118.0</ele><time>2026-04-05T02:58:51.555Z</time></trkpt><trkpt lat="9.9104418" lon="-84.0992579"><ele>1118.0</ele><time>2026-04-05T02:58:52.557Z</time></trkpt><trkpt lat="9.9105134" lon="-84.0992747"><ele>1118.0</ele><time>2026-04-05T02:58:53.556Z</time></trkpt><trkpt lat="9.9106142" lon="-84.099301"><ele>1118.0</ele><time>2026-04-05T02:58:55.556Z</time></trkpt><trkpt lat="9.9106802" lon="-84.0993111"><ele>1118.0</ele><time>2026-04-05T02:58:59.556Z</time></trkpt><trkpt lat="9.9107546" lon="-84.0993089"><ele>1118.0</ele><time>2026-04-05T02:59:01.556Z</time></trkpt><trkpt lat="9.9108653" lon="-84.0992532"><ele>1118.0</ele><time>2026-04-05T02:59:03.556Z</time></trkpt><trkpt lat="9.9109187" lon="-84.0992073"><ele>1118.0</ele><time>2026-04-05T02:59:04.556Z</time></trkpt><trkpt lat="9.9109775" lon="-84.0991646"><ele>1118.0</ele><time>2026-04-05T02:59:05.556Z</time></trkpt><trkpt lat="9.9110566" lon="-84.099137"><ele>1118.0</ele><time>2026-04-05T02:59:06.556Z</time></trkpt><trkpt lat="9.9111438" lon="-84.099114"><ele>1118.0</ele><time>2026-04-05T02:59:07.556Z</time></trkpt><trkpt lat="9.9112309" lon="-84.0991071"><ele>1118.0</ele><time>2026-04-05T02:59:08.556Z</time></trkpt><trkpt lat="9.9113063" lon="-84.0991188"><ele>1118.0</ele><time>2026-04-05T02:59:09.556Z</time></trkpt><trkpt lat="9.9113774" lon="-84.0991474"><ele>1118.0</ele><time>2026-04-05T02:59:10.556Z</time></trkpt><trkpt lat="9.9114426" lon="-84.09918"><ele>1118.0</ele><time>2026-04-05T02:59:11.556Z</time></trkpt><trkpt lat="9.9114853" lon="-84.0992345"><ele>1118.0</ele><time>2026-04-05T02:59:12.555Z</time></trkpt><trkpt lat="9.9115138" lon="-84.0993559"><ele>1118.0</ele><time>2026-04-05T02:59:14.557Z</time></trkpt><trkpt lat="9.9115085" lon="-84.0994306"><ele>1118.0</ele><time>2026-04-05T02:59:15.557Z</time></trkpt><trkpt lat="9.9114884" lon="-84.0995056"><ele>1118.0</ele><time>2026-04-05T02:59:16.555Z</time></trkpt><trkpt lat="9.9114513" lon="-84.0995797"><ele>1118.0</ele><time>2026-04-05T02:59:17.557Z</time></trkpt><trkpt lat="9.9114289" lon="-84.0996542"><ele>1118.0</ele><time>2026-04-05T02:59:18.556Z</time></trkpt><trkpt lat="9.9114177" lon="-84.0997262"><ele>1118.0</ele><time>2026-04-05T02:59:19.556Z</time></trkpt><trkpt lat="9.9114257" lon="-84.0998001"><ele>1118.0</ele><time>2026-04-05T02:59:20.556Z</time></trkpt><trkpt lat="9.9114554" lon="-84.0998793"><ele>1118.0</ele><time>2026-04-05T02:59:21.556Z</time></trkpt><trkpt lat="9.9114896" lon="-84.0999577"><ele>1118.4</ele><time>2026-04-05T02:59:22.557Z</time></trkpt><trkpt lat="9.9115182" lon="-84.1000348"><ele>1118.8</ele><time>2026-04-05T02:59:23.557Z</time></trkpt><trkpt lat="9.9115491" lon="-84.1001189"><ele>1119.2</ele><time>2026-04-05T02:59:24.556Z</time></trkpt><trkpt lat="9.9115852" lon="-84.1002145"><ele>1119.6</ele><time>2026-04-05T02:59:25.556Z</time></trkpt><trkpt lat="9.9116213" lon="-84.1003184"><ele>1120.0</ele><time>2026-04-05T02:59:26.556Z</time></trkpt><trkpt lat="9.9116548" lon="-84.1004188"><ele>1120.0</ele><time>2026-04-05T02:59:27.556Z</time></trkpt><trkpt lat="9.9116811" lon="-84.1005123"><ele>1120.0</ele><time>2026-04-05T02:59:28.555Z</time></trkpt><trkpt lat="9.911713" lon="-84.1006092"><ele>1120.0</ele><time>2026-04-05T02:59:29.556Z</time></trkpt><trkpt lat="9.9117475" lon="-84.100706"><ele>1120.0</ele><time>2026-04-05T02:59:30.555Z</time></trkpt><trkpt lat="9.9117766" lon="-84.1007922"><ele>1120.0</ele><time>2026-04-05T02:59:31.556Z</time></trkpt><trkpt lat="9.9118064" lon="-84.1008783"><ele>1120.6666666666665</ele><time>2026-04-05T02:59:32.556Z</time></trkpt><trkpt lat="9.9118374" lon="-84.1009621"><ele>1121.3333333333333</ele><time>2026-04-05T02:59:33.557Z</time></trkpt><trkpt lat="9.9118709" lon="-84.1010505"><ele>1122.0</ele><time>2026-04-05T02:59:34.556Z</time></trkpt><trkpt lat="9.9119081" lon="-84.1011386"><ele>1122.6666666666667</ele><time>2026-04-05T02:59:35.556Z</time></trkpt><trkpt lat="9.9119349" lon="-84.1012177"><ele>1123.3333333333335</ele><time>2026-04-05T02:59:36.556Z</time></trkpt><trkpt lat="9.9119603" lon="-84.1012937"><ele>1124.0</ele><time>2026-04-05T02:59:37.556Z</time></trkpt><trkpt lat="9.9119842" lon="-84.1013751"><ele>1124.0</ele><time>2026-04-05T02:59:38.556Z</time></trkpt><trkpt lat="9.9120068" lon="-84.1014574"><ele>1124.0</ele><time>2026-04-05T02:59:39.556Z</time></trkpt><trkpt lat="9.9120328" lon="-84.1015416"><ele>1124.0</ele><time>2026-04-05T02:59:40.557Z</time></trkpt><trkpt lat="9.9120589" lon="-84.1016119"><ele>1124.0</ele><time>2026-04-05T02:59:41.557Z</time></trkpt><trkpt lat="9.9120812" lon="-84.1016919"><ele>1124.0</ele><time>2026-04-05T02:59:42.556Z</time></trkpt><trkpt lat="9.9121008" lon="-84.1017684"><ele>1124.0</ele><time>2026-04-05T02:59:43.556Z</time></trkpt><trkpt lat="9.9121319" lon="-84.1018651"><ele>1123.8</ele><time>2026-04-05T02:59:44.556Z</time></trkpt><trkpt lat="9.9121636" lon="-84.1019628"><ele>1123.6000000000001</ele><time>2026-04-05T02:59:45.557Z</time></trkpt><trkpt lat="9.9122008" lon="-84.1020705"><ele>1123.4</ele><time>2026-04-05T02:59:46.556Z</time></trkpt><trkpt lat="9.9122382" lon="-84.1021787"><ele>1123.2</ele><time>2026-04-05T02:59:47.556Z</time></trkpt><trkpt lat="9.912277" lon="-84.1022872"><ele>1123.0</ele><time>2026-04-05T02:59:48.557Z</time></trkpt><trkpt lat="9.9123182" lon="-84.1024017"><ele>1122.75</ele><time>2026-04-05T02:59:49.556Z</time></trkpt><trkpt lat="9.9123616" lon="-84.1025221"><ele>1122.5</ele><time>2026-04-05T02:59:50.556Z</time></trkpt><trkpt lat="9.9124053" lon="-84.1026486"><ele>1122.25</ele><time>2026-04-05T02:59:51.556Z</time></trkpt><trkpt lat="9.9124494" lon="-84.1027784"><ele>1122.0</ele><time>2026-04-05T02:59:52.556Z</time></trkpt><trkpt lat="9.9124937" lon="-84.1029232"><ele>1122.0</ele><time>2026-04-05T02:59:53.556Z</time></trkpt><trkpt lat="9.9125385" lon="-84.1030662"><ele>1122.0</ele><time>2026-04-05T02:59:54.556Z</time></trkpt><trkpt lat="9.9125766" lon="-84.1032293"><ele>1122.0</ele><time>2026-04-05T02:59:55.556Z</time></trkpt><trkpt lat="9.9126193" lon="-84.1034089"><ele>1120.0</ele><time>2026-04-05T02:59:56.555Z</time></trkpt><trkpt lat="9.9126723" lon="-84.1035973"><ele>1118.0</ele><time>2026-04-05T02:59:57.557Z</time></trkpt><trkpt lat="9.912735" lon="-84.1037925"><ele>1116.0</ele><time>2026-04-05T02:59:58.556Z</time></trkpt><trkpt lat="9.9128044" lon="-84.104002"><ele>1114.3333333333333</ele><time>2026-04-05T02:59:59.556Z</time></trkpt><trkpt lat="9.9128745" lon="-84.1042016"><ele>1112.6666666666665</ele><time>2026-04-05T03:00:00.556Z</time></trkpt><trkpt lat="9.912942" lon="-84.1043931"><ele>1111.0</ele><time>2026-04-05T03:00:01.555Z</time></trkpt><trkpt lat="9.913023" lon="-84.1045864"><ele>1111.0</ele><time>2026-04-05T03:00:02.555Z</time></trkpt><trkpt lat="9.9131246" lon="-84.1047734"><ele>1111.0</ele><time>2026-04-05T03:00:03.557Z</time></trkpt><trkpt lat="9.9132383" lon="-84.1049453"><ele>1111.0</ele><time>2026-04-05T03:00:04.557Z</time></trkpt><trkpt lat="9.9133605" lon="-84.1050938"><ele>1110.6666666666665</ele><time>2026-04-05T03:00:05.556Z</time></trkpt><trkpt lat="9.9134963" lon="-84.1052318"><ele>1110.3333333333333</ele><time>2026-04-05T03:00:06.555Z</time></trkpt><trkpt lat="9.9136478" lon="-84.105363"><ele>1110.0</ele><time>2026-04-05T03:00:07.556Z</time></trkpt><trkpt lat="9.913814" lon="-84.1054832"><ele>1110.0</ele><time>2026-04-05T03:00:08.556Z</time></trkpt><trkpt lat="9.9139793" lon="-84.105584"><ele>1110.0</ele><time>2026-04-05T03:00:09.556Z</time></trkpt><trkpt lat="9.9141417" lon="-84.1056653"><ele>1110.0</ele><time>2026-04-05T03:00:10.555Z</time></trkpt><trkpt lat="9.9143119" lon="-84.1057316"><ele>1110.3333333333333</ele><time>2026-04-05T03:00:11.556Z</time></trkpt><trkpt lat="9.9144894" lon="-84.1057873"><ele>1110.6666666666665</ele><time>2026-04-05T03:00:12.556Z</time></trkpt><trkpt lat="9.9146777" lon="-84.1058285"><ele>1111.0</ele><time>2026-04-05T03:00:13.556Z</time></trkpt><trkpt lat="9.9148751" lon="-84.1058658"><ele>1112.0</ele><time>2026-04-05T03:00:14.555Z</time></trkpt><trkpt lat="9.9150776" lon="-84.1059033"><ele>1113.0</ele><time>2026-04-05T03:00:15.556Z</time></trkpt><trkpt lat="9.9152838" lon="-84.1059411"><ele>1114.0</ele><time>2026-04-05T03:00:16.556Z</time></trkpt><trkpt lat="9.9154908" lon="-84.1059799"><ele>1114.0</ele><time>2026-04-05T03:00:17.556Z</time></trkpt><trkpt lat="9.9156928" lon="-84.1060179"><ele>1114.0</ele><time>2026-04-05T03:00:18.557Z</time></trkpt><trkpt lat="9.9158809" lon="-84.1060534"><ele>1114.0</ele><time>2026-04-05T03:00:19.556Z</time></trkpt><trkpt lat="9.9160624" lon="-84.1060862"><ele>1113.0</ele><time>2026-04-05T03:00:20.556Z</time></trkpt><trkpt lat="9.9162462" lon="-84.1061205"><ele>1112.0</ele><time>2026-04-05T03:00:21.556Z</time></trkpt><trkpt lat="9.9164319" lon="-84.1061561"><ele>1111.0</ele><time>2026-04-05T03:00:22.556Z</time></trkpt><trkpt lat="9.9166173" lon="-84.1061916"><ele>1110.3333333333333</ele><time>2026-04-05T03:00:23.556Z</time></trkpt><trkpt lat="9.9167902" lon="-84.1062193"><ele>1109.6666666666667</ele><time>2026-04-05T03:00:24.556Z</time></trkpt><trkpt lat="9.9169594" lon="-84.1062502"><ele>1109.0</ele><time>2026-04-05T03:00:25.555Z</time></trkpt><trkpt lat="9.9171296" lon="-84.1062837"><ele>1109.0</ele><time>2026-04-05T03:00:26.556Z</time></trkpt><trkpt lat="9.9173025" lon="-84.1063145"><ele>1109.0</ele><time>2026-04-05T03:00:27.555Z</time></trkpt><trkpt lat="9.9174744" lon="-84.106344"><ele>1109.0</ele><time>2026-04-05T03:00:28.556Z</time></trkpt><trkpt lat="9.9176315" lon="-84.1063742"><ele>1108.6666666666667</ele><time>2026-04-05T03:00:29.556Z</time></trkpt><trkpt lat="9.9177825" lon="-84.106403"><ele>1108.3333333333333</ele><time>2026-04-05T03:00:30.556Z</time></trkpt><trkpt lat="9.9179313" lon="-84.1064336"><ele>1108.0</ele><time>2026-04-05T03:00:31.557Z</time></trkpt><trkpt lat="9.9180781" lon="-84.1064589"><ele>1108.0</ele><time>2026-04-05T03:00:32.557Z</time></trkpt><trkpt lat="9.9182305" lon="-84.1064877"><ele>1108.0</ele><time>2026-04-05T03:00:33.556Z</time></trkpt><trkpt lat="9.9183776" lon="-84.106513"><ele>1108.0</ele><time>2026-04-05T03:00:34.556Z</time></trkpt><trkpt lat="9.9185204" lon="-84.1065368"><ele>1108.0</ele><time>2026-04-05T03:00:35.556Z</time></trkpt><trkpt lat="9.9186553" lon="-84.1065605"><ele>1108.5</ele><time>2026-04-05T03:00:36.556Z</time></trkpt><trkpt lat="9.9187928" lon="-84.1065837"><ele>1109.0</ele><time>2026-04-05T03:00:37.556Z</time></trkpt><trkpt lat="9.9189365" lon="-84.1066118"><ele>1109.5</ele><time>2026-04-05T03:00:38.555Z</time></trkpt><trkpt lat="9.9190823" lon="-84.1066392"><ele>1110.0</ele><time>2026-04-05T03:00:39.556Z</time></trkpt><trkpt lat="9.9192321" lon="-84.1066714"><ele>1110.3333333333333</ele><time>2026-04-05T03:00:40.556Z</time></trkpt><trkpt lat="9.9193861" lon="-84.1066985"><ele>1110.6666666666665</ele><time>2026-04-05T03:00:41.556Z</time></trkpt><trkpt lat="9.9195508" lon="-84.1067268"><ele>1111.0</ele><time>2026-04-05T03:00:42.556Z</time></trkpt><trkpt lat="9.9197163" lon="-84.1067612"><ele>1111.0</ele><time>2026-04-05T03:00:43.556Z</time></trkpt><trkpt lat="9.9198763" lon="-84.1067908"><ele>1111.0</ele><time>2026-04-05T03:00:44.556Z</time></trkpt><trkpt lat="9.9200285" lon="-84.1068197"><ele>1111.0</ele><time>2026-04-05T03:00:45.556Z</time></trkpt><trkpt lat="9.9201794" lon="-84.1068452"><ele>1111.3333333333333</ele><time>2026-04-05T03:00:46.556Z</time></trkpt><trkpt lat="9.9203308" lon="-84.1068727"><ele>1111.6666666666667</ele><time>2026-04-05T03:00:47.556Z</time></trkpt><trkpt lat="9.9204869" lon="-84.1069043"><ele>1112.0</ele><time>2026-04-05T03:00:48.556Z</time></trkpt><trkpt lat="9.9206429" lon="-84.1069314"><ele>1112.0</ele><time>2026-04-05T03:00:49.556Z</time></trkpt><trkpt lat="9.9207893" lon="-84.1069601"><ele>1112.0</ele><time>2026-04-05T03:00:50.556Z</time></trkpt><trkpt lat="9.920933" lon="-84.1069873"><ele>1112.0</ele><time>2026-04-05T03:00:51.556Z</time></trkpt><trkpt lat="9.9210791" lon="-84.1070081"><ele>1112.0</ele><time>2026-04-05T03:00:52.556Z</time></trkpt><trkpt lat="9.9212328" lon="-84.1070326"><ele>1114.3333333333335</ele><time>2026-04-05T03:00:53.555Z</time></trkpt><trkpt lat="9.9213893" lon="-84.1070615"><ele>1116.6666666666667</ele><time>2026-04-05T03:00:54.556Z</time></trkpt><trkpt lat="9.921549" lon="-84.1070925"><ele>1119.0</ele><time>2026-04-05T03:00:55.556Z</time></trkpt><trkpt lat="9.9217254" lon="-84.1071424"><ele>1121.0</ele><time>2026-04-05T03:00:56.556Z</time></trkpt><trkpt lat="9.9218993" lon="-84.1071948"><ele>1123.0</ele><time>2026-04-05T03:00:57.556Z</time></trkpt><trkpt lat="9.9220705" lon="-84.1072575"><ele>1125.0</ele><time>2026-04-05T03:00:58.556Z</time></trkpt><trkpt lat="9.9222421" lon="-84.1073279"><ele>1124.3333333333333</ele><time>2026-04-05T03:00:59.556Z</time></trkpt><trkpt lat="9.9224101" lon="-84.107411"><ele>1123.6666666666665</ele><time>2026-04-05T03:01:00.557Z</time></trkpt><trkpt lat="9.9225778" lon="-84.1075019"><ele>1123.0</ele><time>2026-04-05T03:01:01.556Z</time></trkpt><trkpt lat="9.9227467" lon="-84.1076038"><ele>1123.0</ele><time>2026-04-05T03:01:02.556Z</time></trkpt><trkpt lat="9.9229008" lon="-84.1077114"><ele>1123.0</ele><time>2026-04-05T03:01:03.556Z</time></trkpt><trkpt lat="9.9230399" lon="-84.1078205"><ele>1123.0</ele><time>2026-04-05T03:01:04.556Z</time></trkpt><trkpt lat="9.9231794" lon="-84.1079406"><ele>1123.0</ele><time>2026-04-05T03:01:05.556Z</time></trkpt><trkpt lat="9.9233133" lon="-84.1080666"><ele>1123.0</ele><time>2026-04-05T03:01:06.556Z</time></trkpt><trkpt lat="9.9234382" lon="-84.1081936"><ele>1123.0</ele><time>2026-04-05T03:01:07.556Z</time></trkpt><trkpt lat="9.9235524" lon="-84.1083223"><ele>1123.0</ele><time>2026-04-05T03:01:08.555Z</time></trkpt><trkpt lat="9.9236487" lon="-84.1084563"><ele>1123.0</ele><time>2026-04-05T03:01:09.556Z</time></trkpt><trkpt lat="9.9237554" lon="-84.1086026"><ele>1123.0</ele><time>2026-04-05T03:01:10.556Z</time></trkpt><trkpt lat="9.9238541" lon="-84.1087538"><ele>1123.0</ele><time>2026-04-05T03:01:11.556Z</time></trkpt><trkpt lat="9.9239423" lon="-84.1089015"><ele>1123.0</ele><time>2026-04-05T03:01:12.556Z</time></trkpt><trkpt lat="9.9240298" lon="-84.1090483"><ele>1123.0</ele><time>2026-04-05T03:01:13.556Z</time></trkpt><trkpt lat="9.9241124" lon="-84.1092007"><ele>1123.3333333333333</ele><time>2026-04-05T03:01:14.556Z</time></trkpt><trkpt lat="9.9242" lon="-84.1093575"><ele>1123.6666666666667</ele><time>2026-04-05T03:01:15.556Z</time></trkpt><trkpt lat="9.9242903" lon="-84.1095161"><ele>1124.0</ele><time>2026-04-05T03:01:16.557Z</time></trkpt><trkpt lat="9.9243816" lon="-84.1096718"><ele>1124.0</ele><time>2026-04-05T03:01:17.556Z</time></trkpt><trkpt lat="9.9244691" lon="-84.1098267"><ele>1124.0</ele><time>2026-04-05T03:01:18.556Z</time></trkpt><trkpt lat="9.9245595" lon="-84.1099828"><ele>1124.0</ele><time>2026-04-05T03:01:19.556Z</time></trkpt><trkpt lat="9.9246438" lon="-84.1101372"><ele>1122.6666666666667</ele><time>2026-04-05T03:01:20.556Z</time></trkpt><trkpt lat="9.924729" lon="-84.1102982"><ele>1121.3333333333333</ele><time>2026-04-05T03:01:21.556Z</time></trkpt><trkpt lat="9.9248111" lon="-84.1104509"><ele>1120.0</ele><time>2026-04-05T03:01:22.556Z</time></trkpt><trkpt lat="9.9248942" lon="-84.1106008"><ele>1119.0</ele><time>2026-04-05T03:01:23.557Z</time></trkpt><trkpt lat="9.9249815" lon="-84.1107499"><ele>1118.0</ele><time>2026-04-05T03:01:24.557Z</time></trkpt><trkpt lat="9.9250669" lon="-84.1108979"><ele>1117.0</ele><time>2026-04-05T03:01:25.556Z</time></trkpt><trkpt lat="9.9251522" lon="-84.111042"><ele>1117.0</ele><time>2026-04-05T03:01:26.556Z</time></trkpt><trkpt lat="9.92523" lon="-84.111179"><ele>1117.0</ele><time>2026-04-05T03:01:27.556Z</time></trkpt><trkpt lat="9.9253113" lon="-84.1113218"><ele>1117.0</ele><time>2026-04-05T03:01:28.556Z</time></trkpt><trkpt lat="9.9253939" lon="-84.1114686"><ele>1115.3333333333333</ele><time>2026-04-05T03:01:29.556Z</time></trkpt><trkpt lat="9.9254696" lon="-84.1116082"><ele>1113.6666666666667</ele><time>2026-04-05T03:01:30.556Z</time></trkpt><trkpt lat="9.9255582" lon="-84.1117715"><ele>1112.0</ele><time>2026-04-05T03:01:31.556Z</time></trkpt><trkpt lat="9.9256507" lon="-84.1119382"><ele>1112.0</ele><time>2026-04-05T03:01:32.556Z</time></trkpt><trkpt lat="9.9257475" lon="-84.1121114"><ele>1112.0</ele><time>2026-04-05T03:01:33.556Z</time></trkpt><trkpt lat="9.9258436" lon="-84.1122813"><ele>1112.0</ele><time>2026-04-05T03:01:34.556Z</time></trkpt><trkpt lat="9.9259445" lon="-84.1124464"><ele>1111.0</ele><time>2026-04-05T03:01:35.556Z</time></trkpt><trkpt lat="9.9260347" lon="-84.1126098"><ele>1110.0</ele><time>2026-04-05T03:01:36.556Z</time></trkpt><trkpt lat="9.9261231" lon="-84.1127659"><ele>1109.0</ele><time>2026-04-05T03:01:37.556Z</time></trkpt><trkpt lat="9.9262182" lon="-84.1129245"><ele>1109.0</ele><time>2026-04-05T03:01:38.556Z</time></trkpt><trkpt lat="9.926312" lon="-84.1130876"><ele>1109.0</ele><time>2026-04-05T03:01:39.556Z</time></trkpt><trkpt lat="9.9264039" lon="-84.1132521"><ele>1109.0</ele><time>2026-04-05T03:01:40.555Z</time></trkpt><trkpt lat="9.9264915" lon="-84.1134151"><ele>1108.0</ele><time>2026-04-05T03:01:41.557Z</time></trkpt><trkpt lat="9.9265799" lon="-84.1135789"><ele>1107.0</ele><time>2026-04-05T03:01:42.556Z</time></trkpt><trkpt lat="9.9266738" lon="-84.1137478"><ele>1106.0</ele><time>2026-04-05T03:01:43.556Z</time></trkpt><trkpt lat="9.9267671" lon="-84.1139208"><ele>1104.6666666666667</ele><time>2026-04-05T03:01:44.556Z</time></trkpt><trkpt lat="9.9268552" lon="-84.1140935"><ele>1103.3333333333333</ele><time>2026-04-05T03:01:45.555Z</time></trkpt><trkpt lat="9.9269401" lon="-84.1142638"><ele>1102.0</ele><time>2026-04-05T03:01:46.556Z</time></trkpt><trkpt lat="9.9270257" lon="-84.1144309"><ele>1102.0</ele><time>2026-04-05T03:01:47.556Z</time></trkpt><trkpt lat="9.927108" lon="-84.1145793"><ele>1102.0</ele><time>2026-04-05T03:01:48.556Z</time></trkpt><trkpt lat="9.9271931" lon="-84.1147292"><ele>1102.0</ele><time>2026-04-05T03:01:49.555Z</time></trkpt><trkpt lat="9.9272756" lon="-84.1148709"><ele>1099.0</ele><time>2026-04-05T03:01:50.556Z</time></trkpt><trkpt lat="9.9273626" lon="-84.1150127"><ele>1096.0</ele><time>2026-04-05T03:01:51.556Z</time></trkpt><trkpt lat="9.9274575" lon="-84.1151571"><ele>1093.0</ele><time>2026-04-05T03:01:52.556Z</time></trkpt><trkpt lat="9.9275782" lon="-84.1153069"><ele>1093.0</ele><time>2026-04-05T03:01:53.555Z</time></trkpt><trkpt lat="9.9277054" lon="-84.1154524"><ele>1093.0</ele><time>2026-04-05T03:01:54.556Z</time></trkpt><trkpt lat="9.9278415" lon="-84.1155876"><ele>1093.0</ele><time>2026-04-05T03:01:55.556Z</time></trkpt><trkpt lat="9.927983" lon="-84.1157031"><ele>1090.0</ele><time>2026-04-05T03:01:56.555Z</time></trkpt><trkpt lat="9.9281269" lon="-84.1158122"><ele>1087.0</ele><time>2026-04-05T03:01:57.556Z</time></trkpt><trkpt lat="9.9282647" lon="-84.1159075"><ele>1084.0</ele><time>2026-04-05T03:01:58.555Z</time></trkpt><trkpt lat="9.928411" lon="-84.1159988"><ele>1084.0</ele><time>2026-04-05T03:01:59.556Z</time></trkpt><trkpt lat="9.928568" lon="-84.1160813"><ele>1084.0</ele><time>2026-04-05T03:02:00.556Z</time></trkpt><trkpt lat="9.928733" lon="-84.1161536"><ele>1084.0</ele><time>2026-04-05T03:02:01.556Z</time></trkpt><trkpt lat="9.9289097" lon="-84.1162133"><ele>1084.0</ele><time>2026-04-05T03:02:02.556Z</time></trkpt><trkpt lat="9.9290965" lon="-84.1162619"><ele>1084.0</ele><time>2026-04-05T03:02:03.556Z</time></trkpt><trkpt lat="9.9292921" lon="-84.1162958"><ele>1084.0</ele><time>2026-04-05T03:02:04.556Z</time></trkpt><trkpt lat="9.9294884" lon="-84.1163234"><ele>1080.0</ele><time>2026-04-05T03:02:05.556Z</time></trkpt><trkpt lat="9.9296966" lon="-84.1163333"><ele>1076.0</ele><time>2026-04-05T03:02:06.556Z</time></trkpt><trkpt lat="9.9298997" lon="-84.1163335"><ele>1072.0</ele><time>2026-04-05T03:02:07.557Z</time></trkpt><trkpt lat="9.930098" lon="-84.1163309"><ele>1067.5</ele><time>2026-04-05T03:02:08.556Z</time></trkpt><trkpt lat="9.9303173" lon="-84.1163348"><ele>1063.0</ele><time>2026-04-05T03:02:09.556Z</time></trkpt><trkpt lat="9.9305492" lon="-84.1163418"><ele>1063.0</ele><time>2026-04-05T03:02:10.556Z</time></trkpt><trkpt lat="9.9307924" lon="-84.1163402"><ele>1063.0</ele><time>2026-04-05T03:02:11.556Z</time></trkpt><trkpt lat="9.9310538" lon="-84.1163357"><ele>1067.0</ele><time>2026-04-05T03:02:12.556Z</time></trkpt><trkpt lat="9.9313303" lon="-84.1163324"><ele>1071.0</ele><time>2026-04-05T03:02:13.555Z</time></trkpt><trkpt lat="9.9316153" lon="-84.1163254"><ele>1078.0</ele><time>2026-04-05T03:02:14.556Z</time></trkpt><trkpt lat="9.9319003" lon="-84.1163177"><ele>1085.0</ele><time>2026-04-05T03:02:15.555Z</time></trkpt><trkpt lat="9.9322021" lon="-84.1163143"><ele>1085.0</ele><time>2026-04-05T03:02:16.556Z</time></trkpt><trkpt lat="9.9324964" lon="-84.1163068"><ele>1085.0</ele><time>2026-04-05T03:02:17.556Z</time></trkpt><trkpt lat="9.9327769" lon="-84.116304"><ele>1090.0</ele><time>2026-04-05T03:02:18.556Z</time></trkpt><trkpt lat="9.9330367" lon="-84.1163052"><ele>1095.0</ele><time>2026-04-05T03:02:19.556Z</time></trkpt><trkpt lat="9.9333006" lon="-84.1163054"><ele>1095.5</ele><time>2026-04-05T03:02:20.556Z</time></trkpt><trkpt lat="9.9335517" lon="-84.116315"><ele>1096.0</ele><time>2026-04-05T03:02:21.556Z</time></trkpt><trkpt lat="9.9338083" lon="-84.116325"><ele>1096.0</ele><time>2026-04-05T03:02:22.556Z</time></trkpt><trkpt lat="9.9340506" lon="-84.116332"><ele>1096.0</ele><time>2026-04-05T03:02:23.556Z</time></trkpt><trkpt lat="9.9342827" lon="-84.1163357"><ele>1097.0</ele><time>2026-04-05T03:02:24.556Z</time></trkpt><trkpt lat="9.9345098" lon="-84.1163433"><ele>1098.0</ele><time>2026-04-05T03:02:25.556Z</time></trkpt><trkpt lat="9.9347146" lon="-84.1163502"><ele>1099.0</ele><time>2026-04-05T03:02:26.556Z</time></trkpt><trkpt lat="9.9349103" lon="-84.1163664"><ele>1098.3333333333333</ele><time>2026-04-05T03:02:27.555Z</time></trkpt><trkpt lat="9.9350982" lon="-84.1163872"><ele>1097.6666666666667</ele><time>2026-04-05T03:02:28.556Z</time></trkpt><trkpt lat="9.9352863" lon="-84.1164105"><ele>1097.0</ele><time>2026-04-05T03:02:29.556Z</time></trkpt><trkpt lat="9.9354872" lon="-84.1164176"><ele>1097.0</ele><time>2026-04-05T03:02:30.556Z</time></trkpt><trkpt lat="9.9356852" lon="-84.116421"><ele>1097.0</ele><time>2026-04-05T03:02:31.556Z</time></trkpt><trkpt lat="9.935871" lon="-84.1164308"><ele>1097.0</ele><time>2026-04-05T03:02:32.556Z</time></trkpt><trkpt lat="9.9360391" lon="-84.1164417"><ele>1097.0</ele><time>2026-04-05T03:02:33.555Z</time></trkpt><trkpt lat="9.9362011" lon="-84.1164582"><ele>1097.0</ele><time>2026-04-05T03:02:34.555Z</time></trkpt><trkpt lat="9.9363443" lon="-84.1164669"><ele>1097.0</ele><time>2026-04-05T03:02:35.556Z</time></trkpt><trkpt lat="9.936468" lon="-84.1164684"><ele>1097.0</ele><time>2026-04-05T03:02:36.556Z</time></trkpt><trkpt lat="9.936585" lon="-84.1164596"><ele>1097.0</ele><time>2026-04-05T03:02:37.557Z</time></trkpt><trkpt lat="9.9366786" lon="-84.1164146"><ele>1097.0</ele><time>2026-04-05T03:02:38.556Z</time></trkpt><trkpt lat="9.9367422" lon="-84.116342"><ele>1097.0</ele><time>2026-04-05T03:02:39.555Z</time></trkpt><trkpt lat="9.936765" lon="-84.1162524"><ele>1097.0</ele><time>2026-04-05T03:02:40.556Z</time></trkpt><trkpt lat="9.9367651" lon="-84.1161574"><ele>1097.0</ele><time>2026-04-05T03:02:41.556Z</time></trkpt><trkpt lat="9.9367305" lon="-84.1160665"><ele>1097.0</ele><time>2026-04-05T03:02:42.556Z</time></trkpt><trkpt lat="9.9366325" lon="-84.1160415"><ele>1097.0</ele><time>2026-04-05T03:02:43.556Z</time></trkpt><trkpt lat="9.9365487" lon="-84.1160275"><ele>1097.0</ele><time>2026-04-05T03:02:44.556Z</time></trkpt><trkpt lat="9.9364738" lon="-84.1160418"><ele>1097.0</ele><time>2026-04-05T03:02:45.555Z</time></trkpt><trkpt lat="9.9364038" lon="-84.1161055"><ele>1097.0</ele><time>2026-04-05T03:02:46.556Z</time></trkpt><trkpt lat="9.9363537" lon="-84.116191"><ele>1097.0</ele><time>2026-04-05T03:02:47.556Z</time></trkpt><trkpt lat="9.9363171" lon="-84.1163002"><ele>1097.0</ele><time>2026-04-05T03:02:48.556Z</time></trkpt><trkpt lat="9.9363052" lon="-84.1164387"><ele>1097.0</ele><time>2026-04-05T03:02:49.555Z</time></trkpt><trkpt lat="9.9362899" lon="-84.1165869"><ele>1097.0</ele><time>2026-04-05T03:02:50.555Z</time></trkpt><trkpt lat="9.9362791" lon="-84.1167972"><ele>1093.0</ele><time>2026-04-05T03:02:51.558Z</time></trkpt><trkpt lat="9.9362454" lon="-84.1170217"><ele>1089.0</ele><time>2026-04-05T03:02:52.557Z</time></trkpt><trkpt lat="9.9361963" lon="-84.1172521"><ele>1088.0</ele><time>2026-04-05T03:02:53.556Z</time></trkpt><trkpt lat="9.9361447" lon="-84.1175145"><ele>1087.0</ele><time>2026-04-05T03:02:54.557Z</time></trkpt><trkpt lat="9.9360754" lon="-84.1177861"><ele>1087.0</ele><time>2026-04-05T03:02:55.556Z</time></trkpt><trkpt lat="9.9359973" lon="-84.1180645"><ele>1087.0</ele><time>2026-04-05T03:02:56.556Z</time></trkpt><trkpt lat="9.9359058" lon="-84.1183373"><ele>1084.0</ele><time>2026-04-05T03:02:57.556Z</time></trkpt><trkpt lat="9.9358093" lon="-84.1186065"><ele>1081.0</ele><time>2026-04-05T03:02:58.556Z</time></trkpt><trkpt lat="9.9357214" lon="-84.1188642"><ele>1079.0</ele><time>2026-04-05T03:02:59.556Z</time></trkpt><trkpt lat="9.9356405" lon="-84.1191172"><ele>1077.0</ele><time>2026-04-05T03:03:00.556Z</time></trkpt><trkpt lat="9.9355752" lon="-84.1193648"><ele>1077.0</ele><time>2026-04-05T03:03:01.556Z</time></trkpt><trkpt lat="9.9355117" lon="-84.1196176"><ele>1077.0</ele><time>2026-04-05T03:03:02.556Z</time></trkpt><trkpt lat="9.9354632" lon="-84.1198911"><ele>1077.5</ele><time>2026-04-05T03:03:03.556Z</time></trkpt><trkpt lat="9.9354194" lon="-84.120161"><ele>1078.0</ele><time>2026-04-05T03:03:04.556Z</time></trkpt><trkpt lat="9.9354039" lon="-84.1204214"><ele>1078.0</ele><time>2026-04-05T03:03:05.555Z</time></trkpt><trkpt lat="9.9353891" lon="-84.1206877"><ele>1078.0</ele><time>2026-04-05T03:03:06.556Z</time></trkpt><trkpt lat="9.9353879" lon="-84.1209495"><ele>1074.5</ele><time>2026-04-05T03:03:07.556Z</time></trkpt><trkpt lat="9.9353941" lon="-84.1212063"><ele>1071.0</ele><time>2026-04-05T03:03:08.556Z</time></trkpt><trkpt lat="9.9354156" lon="-84.1214665"><ele>1068.0</ele><time>2026-04-05T03:03:09.555Z</time></trkpt><trkpt lat="9.935444" lon="-84.121733"><ele>1065.0</ele><time>2026-04-05T03:03:10.556Z</time></trkpt><trkpt lat="9.9354627" lon="-84.1219913"><ele>1065.0</ele><time>2026-04-05T03:03:11.555Z</time></trkpt><trkpt lat="9.935482" lon="-84.1222424"><ele>1065.0</ele><time>2026-04-05T03:03:12.556Z</time></trkpt><trkpt lat="9.9354998" lon="-84.122487"><ele>1056.5</ele><time>2026-04-05T03:03:13.556Z</time></trkpt><trkpt lat="9.9355196" lon="-84.1227253"><ele>1048.0</ele><time>2026-04-05T03:03:14.556Z</time></trkpt><trkpt lat="9.935535" lon="-84.1229671"><ele>1048.0</ele><time>2026-04-05T03:03:15.556Z</time></trkpt><trkpt lat="9.9355535" lon="-84.1232073"><ele>1048.0</ele><time>2026-04-05T03:03:16.555Z</time></trkpt><trkpt lat="9.9355691" lon="-84.1234379"><ele>1048.3333333333333</ele><time>2026-04-05T03:03:17.556Z</time></trkpt><trkpt lat="9.935586" lon="-84.1236606"><ele>1048.6666666666667</ele><time>2026-04-05T03:03:18.556Z</time></trkpt><trkpt lat="9.9356061" lon="-84.1238892"><ele>1049.0</ele><time>2026-04-05T03:03:19.556Z</time></trkpt><trkpt lat="9.9356217" lon="-84.1241123"><ele>1049.0</ele><time>2026-04-05T03:03:20.556Z</time></trkpt><trkpt lat="9.935636" lon="-84.1243288"><ele>1049.0</ele><time>2026-04-05T03:03:21.556Z</time></trkpt><trkpt lat="9.9356499" lon="-84.1245387"><ele>1049.0</ele><time>2026-04-05T03:03:22.556Z</time></trkpt><trkpt lat="9.9356552" lon="-84.1247534"><ele>1047.6666666666667</ele><time>2026-04-05T03:03:23.556Z</time></trkpt><trkpt lat="9.9356742" lon="-84.1249654"><ele>1046.3333333333333</ele><time>2026-04-05T03:03:24.556Z</time></trkpt><trkpt lat="9.935699" lon="-84.1251796"><ele>1045.0</ele><time>2026-04-05T03:03:25.556Z</time></trkpt><trkpt lat="9.9357254" lon="-84.1253967"><ele>1045.0</ele><time>2026-04-05T03:03:26.555Z</time></trkpt><trkpt lat="9.9357429" lon="-84.125616"><ele>1045.0</ele><time>2026-04-05T03:03:27.556Z</time></trkpt><trkpt lat="9.9357724" lon="-84.1258467"><ele>1045.0</ele><time>2026-04-05T03:03:28.557Z</time></trkpt><trkpt lat="9.9357876" lon="-84.1260659"><ele>1048.0</ele><time>2026-04-05T03:03:29.556Z</time></trkpt><trkpt lat="9.935795" lon="-84.1262836"><ele>1051.0</ele><time>2026-04-05T03:03:30.556Z</time></trkpt><trkpt lat="9.9357991" lon="-84.126506"><ele>1054.0</ele><time>2026-04-05T03:03:31.556Z</time></trkpt><trkpt lat="9.9358061" lon="-84.1267307"><ele>1056.0</ele><time>2026-04-05T03:03:32.556Z</time></trkpt><trkpt lat="9.9358208" lon="-84.1269711"><ele>1058.0</ele><time>2026-04-05T03:03:33.556Z</time></trkpt><trkpt lat="9.9358423" lon="-84.1272424"><ele>1059.0</ele><time>2026-04-05T03:03:34.555Z</time></trkpt><trkpt lat="9.9358634" lon="-84.1275189"><ele>1060.0</ele><time>2026-04-05T03:03:35.556Z</time></trkpt><trkpt lat="9.935884" lon="-84.1278152"><ele>1059.0</ele><time>2026-04-05T03:03:36.555Z</time></trkpt><trkpt lat="9.9359038" lon="-84.1281264"><ele>1058.0</ele><time>2026-04-05T03:03:37.556Z</time></trkpt><trkpt lat="9.9359367" lon="-84.1284594"><ele>1058.0</ele><time>2026-04-05T03:03:38.556Z</time></trkpt><trkpt lat="9.9359611" lon="-84.1287982"><ele>1058.0</ele><time>2026-04-05T03:03:39.556Z</time></trkpt><trkpt lat="9.9359853" lon="-84.1291376"><ele>1055.5</ele><time>2026-04-05T03:03:40.556Z</time></trkpt><trkpt lat="9.9360104" lon="-84.1294588"><ele>1053.0</ele><time>2026-04-05T03:03:41.554Z</time></trkpt><trkpt lat="9.9360423" lon="-84.1297681"><ele>1049.0</ele><time>2026-04-05T03:03:42.556Z</time></trkpt><trkpt lat="9.9360806" lon="-84.1300649"><ele>1045.0</ele><time>2026-04-05T03:03:43.556Z</time></trkpt><trkpt lat="9.9361192" lon="-84.1303464"><ele>1045.0</ele><time>2026-04-05T03:03:44.556Z</time></trkpt><trkpt lat="9.9361596" lon="-84.130614"><ele>1045.0</ele><time>2026-04-05T03:03:45.555Z</time></trkpt><trkpt lat="9.9362019" lon="-84.1308717"><ele>1044.5</ele><time>2026-04-05T03:03:46.556Z</time></trkpt><trkpt lat="9.9362466" lon="-84.1311177"><ele>1044.0</ele><time>2026-04-05T03:03:47.556Z</time></trkpt><trkpt lat="9.9362952" lon="-84.1313525"><ele>1044.6666666666667</ele><time>2026-04-05T03:03:48.556Z</time></trkpt><trkpt lat="9.9363477" lon="-84.1315751"><ele>1045.3333333333335</ele><time>2026-04-05T03:03:49.555Z</time></trkpt><trkpt lat="9.9364127" lon="-84.1317864"><ele>1046.0</ele><time>2026-04-05T03:03:50.556Z</time></trkpt><trkpt lat="9.9364942" lon="-84.1319772"><ele>1046.0</ele><time>2026-04-05T03:03:51.556Z</time></trkpt><trkpt lat="9.936593" lon="-84.1321483"><ele>1046.0</ele><time>2026-04-05T03:03:52.556Z</time></trkpt><trkpt lat="9.9367139" lon="-84.1323083"><ele>1046.0</ele><time>2026-04-05T03:03:53.556Z</time></trkpt><trkpt lat="9.9368506" lon="-84.1324723"><ele>1041.0</ele><time>2026-04-05T03:03:54.554Z</time></trkpt><trkpt lat="9.9369763" lon="-84.132645"><ele>1036.0</ele><time>2026-04-05T03:03:55.556Z</time></trkpt><trkpt lat="9.9370933" lon="-84.1328374"><ele>1031.0</ele><time>2026-04-05T03:03:56.556Z</time></trkpt><trkpt lat="9.9371885" lon="-84.1330253"><ele>1031.0</ele><time>2026-04-05T03:03:57.556Z</time></trkpt><trkpt lat="9.9372664" lon="-84.13321"><ele>1031.0</ele><time>2026-04-05T03:03:58.556Z</time></trkpt><trkpt lat="9.9373393" lon="-84.133402"><ele>1031.0</ele><time>2026-04-05T03:03:59.555Z</time></trkpt><trkpt lat="9.9374076" lon="-84.1335917"><ele>1031.0</ele><time>2026-04-05T03:04:00.556Z</time></trkpt><trkpt lat="9.9374621" lon="-84.133778"><ele>1031.0</ele><time>2026-04-05T03:04:01.556Z</time></trkpt><trkpt lat="9.9375065" lon="-84.1339556"><ele>1031.0</ele><time>2026-04-05T03:04:02.555Z</time></trkpt><trkpt lat="9.9375452" lon="-84.1341233"><ele>1025.0</ele><time>2026-04-05T03:04:03.555Z</time></trkpt><trkpt lat="9.9375788" lon="-84.1342849"><ele>1019.0</ele><time>2026-04-05T03:04:04.555Z</time></trkpt><trkpt lat="9.9376087" lon="-84.134443"><ele>1013.0</ele><time>2026-04-05T03:04:05.555Z</time></trkpt><trkpt lat="9.9376329" lon="-84.1345938"><ele>1013.0</ele><time>2026-04-05T03:04:06.556Z</time></trkpt><trkpt lat="9.9376545" lon="-84.1347341"><ele>1013.0</ele><time>2026-04-05T03:04:07.556Z</time></trkpt><trkpt lat="9.9376742" lon="-84.1348681"><ele>1013.0</ele><time>2026-04-05T03:04:08.556Z</time></trkpt><trkpt lat="9.937687" lon="-84.1349913"><ele>1013.0</ele><time>2026-04-05T03:04:09.556Z</time></trkpt><trkpt lat="9.937703" lon="-84.1351079"><ele>1013.4</ele><time>2026-04-05T03:04:10.555Z</time></trkpt><trkpt lat="9.9377226" lon="-84.1352167"><ele>1013.8</ele><time>2026-04-05T03:04:11.555Z</time></trkpt><trkpt lat="9.9377396" lon="-84.1353147"><ele>1014.2</ele><time>2026-04-05T03:04:12.555Z</time></trkpt><trkpt lat="9.937757" lon="-84.1354063"><ele>1014.6</ele><time>2026-04-05T03:04:13.556Z</time></trkpt><trkpt lat="9.9377608" lon="-84.1354924"><ele>1015.0</ele><time>2026-04-05T03:04:14.556Z</time></trkpt><trkpt lat="9.9377652" lon="-84.1355707"><ele>1014.9999999999999</ele><time>2026-04-05T03:04:15.556Z</time></trkpt><trkpt lat="9.9377742" lon="-84.1356363"><ele>1015.0</ele><time>2026-04-05T03:04:16.555Z</time></trkpt><trkpt lat="9.9378072" lon="-84.1357561"><ele>1015.0</ele><time>2026-04-05T03:04:18.556Z</time></trkpt><trkpt lat="9.9378345" lon="-84.135864"><ele>1015.0</ele><time>2026-04-05T03:04:20.556Z</time></trkpt><trkpt lat="9.937883" lon="-84.1359245"><ele>1014.9999999999999</ele><time>2026-04-05T03:04:24.556Z</time></trkpt><trkpt lat="9.9378973" lon="-84.1359934"><ele>1015.0</ele><time>2026-04-05T03:04:43.556Z</time></trkpt><trkpt lat="9.9379186" lon="-84.1360591"><ele>1016.4</ele><time>2026-04-05T03:04:44.556Z</time></trkpt><trkpt lat="9.9379442" lon="-84.1361344"><ele>1017.8</ele><time>2026-04-05T03:04:45.555Z</time></trkpt><trkpt lat="9.9379765" lon="-84.1362216"><ele>1019.2</ele><time>2026-04-05T03:04:46.555Z</time></trkpt><trkpt lat="9.9380097" lon="-84.1363128"><ele>1020.6</ele><time>2026-04-05T03:04:47.556Z</time></trkpt><trkpt lat="9.938052" lon="-84.1364334"><ele>1022.0</ele><time>2026-04-05T03:04:48.555Z</time></trkpt><trkpt lat="9.9380774" lon="-84.1365675"><ele>1022.6666666666667</ele><time>2026-04-05T03:04:49.556Z</time></trkpt><trkpt lat="9.9381165" lon="-84.1367234"><ele>1023.3333333333333</ele><time>2026-04-05T03:04:50.556Z</time></trkpt><trkpt lat="9.9381516" lon="-84.1368941"><ele>1024.0</ele><time>2026-04-05T03:04:51.556Z</time></trkpt><trkpt lat="9.9381964" lon="-84.1370845"><ele>1024.0</ele><time>2026-04-05T03:04:52.556Z</time></trkpt><trkpt lat="9.938248" lon="-84.1372889"><ele>1024.0</ele><time>2026-04-05T03:04:53.556Z</time></trkpt><trkpt lat="9.9383018" lon="-84.1374949"><ele>1024.0</ele><time>2026-04-05T03:04:54.556Z</time></trkpt><trkpt lat="9.938354" lon="-84.1376963"><ele>1019.6666666666666</ele><time>2026-04-05T03:04:55.555Z</time></trkpt><trkpt lat="9.9384104" lon="-84.1378842"><ele>1015.3333333333333</ele><time>2026-04-05T03:04:56.555Z</time></trkpt><trkpt lat="9.9384666" lon="-84.1380606"><ele>1011.0</ele><time>2026-04-05T03:04:57.556Z</time></trkpt><trkpt lat="9.9385205" lon="-84.1382174"><ele>1009.5</ele><time>2026-04-05T03:04:58.556Z</time></trkpt><trkpt lat="9.9385787" lon="-84.1383627"><ele>1008.0</ele><time>2026-04-05T03:04:59.556Z</time></trkpt><trkpt lat="9.9386338" lon="-84.1384984"><ele>1006.5</ele><time>2026-04-05T03:05:00.556Z</time></trkpt><trkpt lat="9.938682" lon="-84.1386263"><ele>1005.0</ele><time>2026-04-05T03:05:01.556Z</time></trkpt><trkpt lat="9.9387285" lon="-84.1387579"><ele>1005.0</ele><time>2026-04-05T03:05:02.555Z</time></trkpt><trkpt lat="9.9387774" lon="-84.1388798"><ele>1005.0</ele><time>2026-04-05T03:05:03.556Z</time></trkpt><trkpt lat="9.9388338" lon="-84.138989"><ele>1005.0</ele><time>2026-04-05T03:05:04.556Z</time></trkpt><trkpt lat="9.9388966" lon="-84.1390888"><ele>1005.0</ele><time>2026-04-05T03:05:05.555Z</time></trkpt><trkpt lat="9.9389653" lon="-84.1391927"><ele>1006.5</ele><time>2026-04-05T03:05:06.554Z</time></trkpt><trkpt lat="9.9390321" lon="-84.1393117"><ele>1008.0</ele><time>2026-04-05T03:05:07.556Z</time></trkpt><trkpt lat="9.939091" lon="-84.1394368"><ele>1009.5</ele><time>2026-04-05T03:05:08.555Z</time></trkpt><trkpt lat="9.939147" lon="-84.1395529"><ele>1011.0</ele><time>2026-04-05T03:05:09.556Z</time></trkpt><trkpt lat="9.9391937" lon="-84.1396716"><ele>1010.5</ele><time>2026-04-05T03:05:10.556Z</time></trkpt><trkpt lat="9.939237" lon="-84.1397754"><ele>1010.0</ele><time>2026-04-05T03:05:11.556Z</time></trkpt><trkpt lat="9.9392797" lon="-84.1398901"><ele>1009.5</ele><time>2026-04-05T03:05:12.556Z</time></trkpt><trkpt lat="9.9393218" lon="-84.1400116"><ele>1009.0</ele><time>2026-04-05T03:05:13.555Z</time></trkpt><trkpt lat="9.9393682" lon="-84.1401362"><ele>1008.5</ele><time>2026-04-05T03:05:14.556Z</time></trkpt><trkpt lat="9.9394143" lon="-84.1402682"><ele>1008.0</ele><time>2026-04-05T03:05:15.556Z</time></trkpt><trkpt lat="9.9394606" lon="-84.1404068"><ele>1007.5</ele><time>2026-04-05T03:05:16.555Z</time></trkpt><trkpt lat="9.9395096" lon="-84.1405396"><ele>1007.0</ele><time>2026-04-05T03:05:17.554Z</time></trkpt><trkpt lat="9.9395577" lon="-84.1406659"><ele>1008.25</ele><time>2026-04-05T03:05:18.556Z</time></trkpt><trkpt lat="9.9396013" lon="-84.140783"><ele>1009.5</ele><time>2026-04-05T03:05:19.556Z</time></trkpt><trkpt lat="9.9396447" lon="-84.1408926"><ele>1010.75</ele><time>2026-04-05T03:05:20.555Z</time></trkpt><trkpt lat="9.9396873" lon="-84.1409972"><ele>1012.0</ele><time>2026-04-05T03:05:21.555Z</time></trkpt><trkpt lat="9.9397268" lon="-84.1410989"><ele>1012.0</ele><time>2026-04-05T03:05:22.555Z</time></trkpt><trkpt lat="9.9397654" lon="-84.1412032"><ele>1012.0</ele><time>2026-04-05T03:05:23.556Z</time></trkpt><trkpt lat="9.9398063" lon="-84.1413078"><ele>1012.0</ele><time>2026-04-05T03:05:24.556Z</time></trkpt><trkpt lat="9.9398557" lon="-84.1414186"><ele>1012.0</ele><time>2026-04-05T03:05:25.556Z</time></trkpt><trkpt lat="9.9399037" lon="-84.1415337"><ele>1013.0</ele><time>2026-04-05T03:05:26.555Z</time></trkpt><trkpt lat="9.9399567" lon="-84.1416469"><ele>1014.0</ele><time>2026-04-05T03:05:27.555Z</time></trkpt><trkpt lat="9.9400122" lon="-84.1417572"><ele>1015.0</ele><time>2026-04-05T03:05:28.556Z</time></trkpt><trkpt lat="9.9400615" lon="-84.1418615"><ele>1016.0</ele><time>2026-04-05T03:05:29.556Z</time></trkpt><trkpt lat="9.9401076" lon="-84.1419667"><ele>1012.5</ele><time>2026-04-05T03:05:30.556Z</time></trkpt><trkpt lat="9.9401607" lon="-84.1420812"><ele>1009.0</ele><time>2026-04-05T03:05:31.555Z</time></trkpt><trkpt lat="9.9402167" lon="-84.1422044"><ele>1005.5</ele><time>2026-04-05T03:05:32.555Z</time></trkpt><trkpt lat="9.9402826" lon="-84.1423367"><ele>1002.0</ele><time>2026-04-05T03:05:33.555Z</time></trkpt><trkpt lat="9.9403452" lon="-84.1424677"><ele>1002.0</ele><time>2026-04-05T03:05:34.555Z</time></trkpt><trkpt lat="9.9404067" lon="-84.1425892"><ele>1002.0</ele><time>2026-04-05T03:05:35.555Z</time></trkpt><trkpt lat="9.9404649" lon="-84.1427075"><ele>1002.0</ele><time>2026-04-05T03:05:36.555Z</time></trkpt><trkpt lat="9.9405211" lon="-84.1428229"><ele>1002.0</ele><time>2026-04-05T03:05:37.556Z</time></trkpt><trkpt lat="9.9405836" lon="-84.142934"><ele>1002.0</ele><time>2026-04-05T03:05:38.554Z</time></trkpt><trkpt lat="9.9406401" lon="-84.1430345"><ele>1002.0</ele><time>2026-04-05T03:05:39.555Z</time></trkpt><trkpt lat="9.9407025" lon="-84.1431504"><ele>1002.0</ele><time>2026-04-05T03:05:40.556Z</time></trkpt><trkpt lat="9.9407664" lon="-84.1432671"><ele>1002.0</ele><time>2026-04-05T03:05:41.556Z</time></trkpt><trkpt lat="9.9408375" lon="-84.1433943"><ele>998.75</ele><time>2026-04-05T03:05:42.556Z</time></trkpt><trkpt lat="9.9409112" lon="-84.1435256"><ele>995.5</ele><time>2026-04-05T03:05:43.556Z</time></trkpt><trkpt lat="9.9409894" lon="-84.143659"><ele>992.25</ele><time>2026-04-05T03:05:44.556Z</time></trkpt><trkpt lat="9.9410659" lon="-84.1437847"><ele>989.0</ele><time>2026-04-05T03:05:45.556Z</time></trkpt><trkpt lat="9.9411368" lon="-84.1439031"><ele>989.0</ele><time>2026-04-05T03:05:46.555Z</time></trkpt><trkpt lat="9.941205" lon="-84.1440127"><ele>989.0</ele><time>2026-04-05T03:05:47.556Z</time></trkpt><trkpt lat="9.9412696" lon="-84.1441156"><ele>989.0</ele><time>2026-04-05T03:05:48.556Z</time></trkpt><trkpt lat="9.9413325" lon="-84.1442136"><ele>989.0</ele><time>2026-04-05T03:05:49.556Z</time></trkpt><trkpt lat="9.9413897" lon="-84.1443032"><ele>992.75</ele><time>2026-04-05T03:05:50.556Z</time></trkpt><trkpt lat="9.9414459" lon="-84.144397"><ele>996.5</ele><time>2026-04-05T03:05:51.555Z</time></trkpt><trkpt lat="9.9415111" lon="-84.1444918"><ele>1000.25</ele><time>2026-04-05T03:05:52.555Z</time></trkpt><trkpt lat="9.9415788" lon="-84.1445881"><ele>1004.0</ele><time>2026-04-05T03:05:53.555Z</time></trkpt><trkpt lat="9.941652" lon="-84.1446875"><ele>1002.5</ele><time>2026-04-05T03:05:54.555Z</time></trkpt><trkpt lat="9.9417229" lon="-84.1447899"><ele>1001.0</ele><time>2026-04-05T03:05:55.556Z</time></trkpt><trkpt lat="9.9418019" lon="-84.1448906"><ele>999.5</ele><time>2026-04-05T03:05:56.555Z</time></trkpt><trkpt lat="9.9418698" lon="-84.1449843"><ele>998.0</ele><time>2026-04-05T03:05:57.555Z</time></trkpt><trkpt lat="9.9419341" lon="-84.1450732"><ele>998.0</ele><time>2026-04-05T03:05:58.555Z</time></trkpt><trkpt lat="9.941995" lon="-84.1451607"><ele>998.0</ele><time>2026-04-05T03:05:59.556Z</time></trkpt><trkpt lat="9.9420555" lon="-84.1452494"><ele>998.0</ele><time>2026-04-05T03:06:00.555Z</time></trkpt><trkpt lat="9.9421296" lon="-84.1453407"><ele>998.0</ele><time>2026-04-05T03:06:01.556Z</time></trkpt><trkpt lat="9.9422001" lon="-84.1454379"><ele>998.0</ele><time>2026-04-05T03:06:02.556Z</time></trkpt><trkpt lat="9.942265" lon="-84.1455291"><ele>998.0</ele><time>2026-04-05T03:06:03.556Z</time></trkpt><trkpt lat="9.9423249" lon="-84.1456143"><ele>998.0</ele><time>2026-04-05T03:06:04.555Z</time></trkpt><trkpt lat="9.9423815" lon="-84.1456939"><ele>998.0</ele><time>2026-04-05T03:06:05.555Z</time></trkpt><trkpt lat="9.9424374" lon="-84.1457682"><ele>998.0</ele><time>2026-04-05T03:06:06.557Z</time></trkpt><trkpt lat="9.9424991" lon="-84.1458447"><ele>998.0</ele><time>2026-04-05T03:06:07.556Z</time></trkpt><trkpt lat="9.9425658" lon="-84.1459216"><ele>999.5999999999999</ele><time>2026-04-05T03:06:08.556Z</time></trkpt><trkpt lat="9.9426396" lon="-84.1459973"><ele>1001.1999999999999</ele><time>2026-04-05T03:06:09.556Z</time></trkpt><trkpt lat="9.9427139" lon="-84.1460719"><ele>1002.8</ele><time>2026-04-05T03:06:10.555Z</time></trkpt><trkpt lat="9.9427815" lon="-84.1461392"><ele>1004.4</ele><time>2026-04-05T03:06:11.556Z</time></trkpt><trkpt lat="9.9428498" lon="-84.1462028"><ele>1006.0</ele><time>2026-04-05T03:06:12.556Z</time></trkpt><trkpt lat="9.9429239" lon="-84.1462675"><ele>1006.0</ele><time>2026-04-05T03:06:13.556Z</time></trkpt><trkpt lat="9.9430066" lon="-84.1463318"><ele>1005.9999999999999</ele><time>2026-04-05T03:06:14.554Z</time></trkpt><trkpt lat="9.9430906" lon="-84.1463918"><ele>1005.9999999999999</ele><time>2026-04-05T03:06:15.556Z</time></trkpt><trkpt lat="9.9431745" lon="-84.1464487"><ele>1006.0</ele><time>2026-04-05T03:06:16.556Z</time></trkpt><trkpt lat="9.9432531" lon="-84.1465047"><ele>1006.0</ele><time>2026-04-05T03:06:17.555Z</time></trkpt><trkpt lat="9.9433242" lon="-84.1465701"><ele>1004.5999999999999</ele><time>2026-04-05T03:06:18.556Z</time></trkpt><trkpt lat="9.9433885" lon="-84.1466433"><ele>1003.1999999999999</ele><time>2026-04-05T03:06:19.556Z</time></trkpt><trkpt lat="9.9434468" lon="-84.1467186"><ele>1001.8000000000001</ele><time>2026-04-05T03:06:20.556Z</time></trkpt><trkpt lat="9.9435046" lon="-84.1467963"><ele>1000.4000000000001</ele><time>2026-04-05T03:06:21.556Z</time></trkpt><trkpt lat="9.9435565" lon="-84.1468733"><ele>999.0</ele><time>2026-04-05T03:06:22.556Z</time></trkpt><trkpt lat="9.9436102" lon="-84.1469502"><ele>999.0</ele><time>2026-04-05T03:06:23.555Z</time></trkpt><trkpt lat="9.9436634" lon="-84.1470247"><ele>999.0</ele><time>2026-04-05T03:06:24.554Z</time></trkpt><trkpt lat="9.9437204" lon="-84.1470991"><ele>999.0</ele><time>2026-04-05T03:06:25.554Z</time></trkpt><trkpt lat="9.9437676" lon="-84.1471766"><ele>999.0</ele><time>2026-04-05T03:06:26.556Z</time></trkpt><trkpt lat="9.9438101" lon="-84.1472595"><ele>999.0</ele><time>2026-04-05T03:06:27.556Z</time></trkpt><trkpt lat="9.9438394" lon="-84.1473394"><ele>999.0</ele><time>2026-04-05T03:06:28.555Z</time></trkpt><trkpt lat="9.9438535" lon="-84.1474262"><ele>997.3333333333334</ele><time>2026-04-05T03:06:29.556Z</time></trkpt><trkpt lat="9.9438512" lon="-84.1475152"><ele>995.6666666666667</ele><time>2026-04-05T03:06:30.555Z</time></trkpt><trkpt lat="9.9438375" lon="-84.1476032"><ele>994.0</ele><time>2026-04-05T03:06:31.554Z</time></trkpt><trkpt lat="9.9438171" lon="-84.1476855"><ele>992.3333333333334</ele><time>2026-04-05T03:06:32.556Z</time></trkpt><trkpt lat="9.9437847" lon="-84.1477628"><ele>990.6666666666667</ele><time>2026-04-05T03:06:33.555Z</time></trkpt><trkpt lat="9.9437444" lon="-84.1478162"><ele>989.0</ele><time>2026-04-05T03:06:34.555Z</time></trkpt><trkpt lat="9.9436842" lon="-84.14786"><ele>989.0000000000001</ele><time>2026-04-05T03:06:35.555Z</time></trkpt><trkpt lat="9.9436129" lon="-84.147881"><ele>989.0</ele><time>2026-04-05T03:06:36.556Z</time></trkpt><trkpt lat="9.9435444" lon="-84.1478937"><ele>989.0</ele><time>2026-04-05T03:06:37.555Z</time></trkpt><trkpt lat="9.9434367" lon="-84.147899"><ele>989.0</ele><time>2026-04-05T03:06:39.555Z</time></trkpt><trkpt lat="9.9433573" lon="-84.1478857"><ele>989.0000000000001</ele><time>2026-04-05T03:06:41.556Z</time></trkpt><trkpt lat="9.9432786" lon="-84.1478646"><ele>989.0</ele><time>2026-04-05T03:06:44.556Z</time></trkpt><trkpt lat="9.9432015" lon="-84.1478731"><ele>989.1666666666667</ele><time>2026-04-05T03:06:48.554Z</time></trkpt><trkpt lat="9.9431578" lon="-84.1479206"><ele>989.3333333333334</ele><time>2026-04-05T03:06:50.555Z</time></trkpt><trkpt lat="9.943157" lon="-84.1480041"><ele>989.5</ele><time>2026-04-05T03:06:52.555Z</time></trkpt><trkpt lat="9.9431773" lon="-84.148104"><ele>989.6666666666667</ele><time>2026-04-05T03:06:54.556Z</time></trkpt><trkpt lat="9.9431954" lon="-84.1482056"><ele>989.8333333333334</ele><time>2026-04-05T03:06:56.556Z</time></trkpt><trkpt lat="9.943214" lon="-84.1482935"><ele>990.0</ele><time>2026-04-05T03:06:58.554Z</time></trkpt><trkpt lat="9.9432278" lon="-84.1483679"><ele>990.0</ele><time>2026-04-05T03:07:01.556Z</time></trkpt><trkpt lat="9.9432468" lon="-84.148435"><ele>990.0</ele><time>2026-04-05T03:07:04.555Z</time></trkpt><trkpt lat="9.9432518" lon="-84.148513"><ele>990.0</ele><time>2026-04-05T03:07:07.555Z</time></trkpt><trkpt lat="9.9431793" lon="-84.1485753"><ele>990.0</ele><time>2026-04-05T03:07:10.555Z</time></trkpt><trkpt lat="9.9431002" lon="-84.1485953"><ele>990.0</ele><time>2026-04-05T03:07:12.554Z</time></trkpt><trkpt lat="9.9430289" lon="-84.148607"><ele>990.0</ele><time>2026-04-05T03:07:14.556Z</time></trkpt><trkpt lat="9.9429561" lon="-84.1486076"><ele>990.0</ele><time>2026-04-05T03:07:16.556Z</time></trkpt><trkpt lat="9.9428711" lon="-84.1486091"><ele>990.0</ele><time>2026-04-05T03:07:19.555Z</time></trkpt><trkpt lat="9.9428029" lon="-84.1486139"><ele>990.0</ele><time>2026-04-05T03:07:21.556Z</time></trkpt><trkpt lat="9.94273" lon="-84.1486208"><ele>990.0</ele><time>2026-04-05T03:07:23.554Z</time></trkpt><trkpt lat="9.942659" lon="-84.1486423"><ele>990.0</ele><time>2026-04-05T03:07:25.555Z</time></trkpt><trkpt lat="9.9426051" lon="-84.1487108"><ele>990.0</ele><time>2026-04-05T03:07:29.555Z</time></trkpt><trkpt lat="9.9426045" lon="-84.1487769"><ele>990.0</ele><time>2026-04-05T03:07:31.555Z</time></trkpt><trkpt lat="9.9426158" lon="-84.1488894"><ele>990.0</ele><time>2026-04-05T03:07:33.555Z</time></trkpt><trkpt lat="9.9426425" lon="-84.1489856"><ele>990.0</ele><time>2026-04-05T03:07:35.556Z</time></trkpt><trkpt lat="9.942671" lon="-84.1490911"><ele>990.0</ele><time>2026-04-05T03:07:37.555Z</time></trkpt><trkpt lat="9.9426897" lon="-84.1491689"><ele>990.0</ele><time>2026-04-05T03:07:39.555Z</time></trkpt><trkpt lat="9.94271" lon="-84.1492532"><ele>992.2</ele><time>2026-04-05T03:07:41.555Z</time></trkpt><trkpt lat="9.9427323" lon="-84.1493463"><ele>994.4</ele><time>2026-04-05T03:07:43.556Z</time></trkpt><trkpt lat="9.9427641" lon="-84.1494572"><ele>996.5999999999999</ele><time>2026-04-05T03:07:45.555Z</time></trkpt><trkpt lat="9.942795" lon="-84.1495556"><ele>998.8</ele><time>2026-04-05T03:07:47.556Z</time></trkpt><trkpt lat="9.9428201" lon="-84.1496623"><ele>1001.0</ele><time>2026-04-05T03:07:49.555Z</time></trkpt><trkpt lat="9.942851" lon="-84.149777"><ele>1001.0</ele><time>2026-04-05T03:07:51.555Z</time></trkpt><trkpt lat="9.9428841" lon="-84.1498794"><ele>1005.0</ele><time>2026-04-05T03:07:53.555Z</time></trkpt><trkpt lat="9.9429063" lon="-84.1499518"><ele>1005.0</ele><time>2026-04-05T03:07:55.554Z</time></trkpt><trkpt lat="9.9429297" lon="-84.150013"><ele>1005.0</ele><time>2026-04-05T03:08:00.556Z</time></trkpt><trkpt lat="9.942963" lon="-84.1500753"><ele>1005.0</ele><time>2026-04-05T03:08:03.556Z</time></trkpt><trkpt lat="9.9430009" lon="-84.1501322"><ele>1005.0</ele><time>2026-04-05T03:08:07.556Z</time></trkpt></trkseg></trk></gpx>